Takano, Matsumi (2013): Radiosonde measurements from station Ishigakijima (2013-05) [dataset]. Japan Meteorological Agency, Tokyo, PANGAEA, https://doi.org/10.1594/PANGAEA.817181
Always quote citation above when using data! You can download the citation in several formats below.
Published: 2013-07-25 • DOI registered: 2013-08-22
Other version:
Takano, Matsumi (2013): BSRN Station-to-archive file for station Ishigakijima (2013-05). ftp://ftp.bsrn.awi.de/ish/ish0513.dat.gz
Project(s):
Coverage:
Latitude: 24.336700 * Longitude: 124.164400
Date/Time Start: 2013-05-01T00:00:00 * Date/Time End: 2013-05-31T23:59:00
Minimum ALTITUDE: 8 m * Maximum ALTITUDE: 33624 m
Event(s):
ISH (Ishigakijima) * Latitude: 24.336700 * Longitude: 124.164400 * Date/Time: 2010-04-01T00:00:00 * Elevation: 5.7 m * Station info: https://hdl.handle.net/10013/epic.44630.d026, update 2022: Ishigakijima.pdf * Location: Japan * Method/Device: Monitoring station (MONS) * Comment: BSRN station no: 7; Surface type: asphalt; Topography type: flat, rural; Horizon: doi:10.1594/PANGAEA.743878; Station scientist: SASAKI Shun (rrc-jma@met.kishou.go.jp)
Parameter(s):
| # | Name | Short Name | Unit | Principal Investigator | Method/Device | Comment |
|---|---|---|---|---|---|---|
| 1 | DATE/TIME | Date/Time | Geocode | |||
| 2 | ALTITUDE | Altitude | m | Geocode | ||
| 3 | Pressure, at given altitude | PPPP | hPa | Takano, Matsumi | Radiosonde, MEISEI, RS-06 | |
| 4 | Temperature, air | TTT | °C | Takano, Matsumi | Radiosonde, MEISEI, RS-06 | |
| 5 | Dew/frost point | TdTdTd | °C | Takano, Matsumi | Radiosonde, MEISEI, RS-06 | |
| 6 | Wind direction | dd | deg | Takano, Matsumi | Radiosonde, MEISEI, RS-06 | |
| 7 | Wind speed | ff | m/s | Takano, Matsumi | Radiosonde, MEISEI, RS-06 |
License:
Size:
24840 data points
Data
| 1 Date/Time | 2 Altitude [m] | 3 PPPP [hPa] | 4 TTT [°C] | 5 TdTdTd [°C] | 6 dd [deg] | 7 ff [m/s] |
|---|---|---|---|---|---|---|
| 2013-05-01T00:00 | 9984 | 284 | 269 | 28 | ||
| 2013-05-01T00:01 | 10291 | 271 | 265 | 30 | ||
| 2013-05-01T00:02 | 10567 | 261 | -40.0 | -42.2 | ||
| 2013-05-01T00:02 | 10577 | 260 | 267 | 32 | ||
| 2013-05-01T00:03 | 10876 | 249 | 268 | 31 | ||
| 2013-05-01T00:04 | 11165 | 239 | 263 | 30 | ||
| 2013-05-01T00:05 | 11444 | 229 | 253 | 28 | ||
| 2013-05-01T00:05 | 11534 | 226 | -48.1 | |||
| 2013-05-01T00:06 | 11699 | 220 | 251 | 28 | ||
| 2013-05-01T00:07 | 11977 | 211 | 251 | 31 | ||
| 2013-05-01T00:08 | 12278 | 201 | 261 | 36 | ||
| 2013-05-01T00:08 | 12332 | 200 | -54.5 | |||
| 2013-05-01T00:09 | 12576 | 192 | 263 | 39 | ||
| 2013-05-01T00:10 | 12882 | 183 | 265 | 41 | ||
| 2013-05-01T00:11 | 13143 | 176 | -61.3 | |||
| 2013-05-01T00:11 | 13186 | 174 | 265 | 43 | ||
| 2013-05-01T00:12 | 13465 | 167 | 263 | 43 | ||
| 2013-05-01T00:12 | 13506 | 166 | -62.0 | |||
| 2013-05-01T00:13 | 13692 | 161 | -63.1 | |||
| 2013-05-01T00:13 | 13723 | 160 | 264 | 41 | ||
| 2013-05-01T00:14 | 13974 | 153 | 272 | 39 | ||
| 2013-05-01T00:15 | 14172 | 149 | -64.1 | |||
| 2013-05-01T00:15 | 14247 | 147 | 274 | 33 | ||
| 2013-05-01T00:15 | 14364 | 144 | -64.6 | |||
| 2013-05-01T00:16 | 14536 | 140 | 264 | 30 | ||
| 2013-05-01T00:17 | 14798 | 134 | -65.9 | |||
| 2013-05-01T00:17 | 14812 | 134 | 260 | 28 | ||
| 2013-05-01T00:17 | 14903 | 132 | -65.4 | |||
| 2013-05-01T00:18 | 15076 | 128 | 265 | 26 | ||
| 2013-05-01T00:19 | 15244 | 125 | -67.3 | |||
| 2013-05-01T00:19 | 15341 | 123 | 263 | 24 | ||
| 2013-05-01T00:20 | 15571 | 118 | -69.0 | |||
| 2013-05-01T00:20 | 15617 | 117 | 263 | 24 | ||
| 2013-05-01T00:20 | 15730 | 115 | -69.3 | |||
| 2013-05-01T00:21 | 15898 | 112 | 262 | 22 | ||
| 2013-05-01T00:22 | 16201 | 106 | 252 | 23 | ||
| 2013-05-01T00:22 | 16245 | 105 | -73.5 | |||
| 2013-05-01T00:23 | 16488 | 101 | 252 | 22 | ||
| 2013-05-01T00:24 | 16645 | 98 | -75.8 | |||
| 2013-05-01T00:24 | 16758 | 96 | 261 | 19 | ||
| 2013-05-01T00:25 | 17028 | 92 | 271 | 14 | ||
| 2013-05-01T00:25 | 17066 | 91 | -75.9 | |||
| 2013-05-01T00:26 | 17195 | 89 | -74.6 | |||
| 2013-05-01T00:26 | 17293 | 88 | 284 | 10 | ||
| 2013-05-01T00:27 | 17551 | 84 | 288 | 9 | ||
| 2013-05-01T00:27 | 17557 | 84 | -74.6 | |||
| 2013-05-01T00:28 | 17832 | 80 | 258 | 9 | ||
| 2013-05-01T00:29 | 18000 | 78 | -77.3 | |||
| 2013-05-01T00:29 | 18134 | 76 | 232 | 12 | ||
| 2013-05-01T00:30 | 18390 | 73 | -76.6 | |||
| 2013-05-01T00:30 | 18406 | 72 | 264 | 11 | ||
| 2013-05-01T00:31 | 18674 | 69 | 301 | 9 | ||
| 2013-05-01T00:31 | 18733 | 68 | -76.7 | |||
| 2013-05-01T00:32 | 18948 | 66 | 265 | 4 | ||
| 2013-05-01T00:32 | 19028 | 65 | -74.3 | |||
| 2013-05-01T00:33 | 19220 | 63 | 264 | 5 | ||
| 2013-05-01T00:34 | 19480 | 60 | 272 | 2 | ||
| 2013-05-01T00:35 | 19641 | 59 | -67.5 | |||
| 2013-05-01T00:35 | 19765 | 57 | 215 | 3 | ||
| 2013-05-01T00:36 | 20044 | 55 | 260 | 5 | ||
| 2013-05-01T00:36 | 20177 | 54 | -68.7 | |||
| 2013-05-01T00:37 | 20324 | 52 | 325 | 3 | ||
| 2013-05-01T00:38 | 20487 | 51 | -67.7 | |||
| 2013-05-01T00:38 | 20607 | 50 | 312 | 4 | ||
| 2013-05-01T00:39 | 20905 | 48 | 11 | 3 | ||
| 2013-05-01T00:40 | 21208 | 45 | 84 | 5 | ||
| 2013-05-01T00:40 | 21331 | 44 | -63.4 | |||
| 2013-05-01T00:41 | 21500 | 43 | 55 | 4 | ||
| 2013-05-01T00:41 | 21645 | 42 | -62.0 | |||
| 2013-05-01T00:42 | 21794 | 41 | 98 | 8 | ||
| 2013-05-01T00:43 | 22120 | 39 | 94 | 10 | ||
| 2013-05-01T00:43 | 22200 | 39 | -59.6 | |||
| 2013-05-01T00:44 | 22432 | 37 | 121 | 13 | ||
| 2013-05-01T00:45 | 22743 | 35 | 126 | 12 | ||
| 2013-05-01T00:45 | 22797 | 35 | -59.2 | |||
| 2013-05-01T00:46 | 23053 | 34 | 116 | 8 | ||
| 2013-05-01T00:47 | 23360 | 32 | 114 | 4 | ||
| 2013-05-01T00:48 | 23704 | 30 | 112 | 3 | ||
| 2013-05-01T00:48 | 23724 | 30 | -57.5 | |||
| 2013-05-01T00:49 | 24024 | 29 | 132 | 7 | ||
| 2013-05-01T00:50 | 24362 | 27 | 130 | 7 | ||
| 2013-05-01T00:51 | 24696 | 26 | 198 | 3 | ||
| 2013-05-01T00:52 | 25049 | 25 | 222 | 7 | ||
| 2013-05-01T00:53 | 25424 | 23 | 183 | 13 | ||
| 2013-05-01T00:53 | 25451 | 23 | -55.6 | |||
| 2013-05-01T00:54 | 25764 | 22 | 203 | 1 | ||
| 2013-05-01T00:55 | 26095 | 21 | 253 | 1 | ||
| 2013-05-01T00:56 | 26413 | 20 | -52.4 | |||
| 2013-05-01T00:56 | 26446 | 20 | 186 | 2 | ||
| 2013-05-01T00:57 | 26578 | 19 | -52.7 | |||
| 2013-05-01T11:30 | 8 | 1011 | 19.5 | 12.0 | 20 | 3 |
| 2013-05-01T11:30 | 79 | 1002 | 19.0 | 9.8 | ||
| 2013-05-01T11:31 | 330 | 973 | 28 | 8 | ||
| 2013-05-01T11:31 | 486 | 956 | 15.8 | 9.2 | ||
| 2013-05-01T11:32 | 683 | 934 | 15 | 11 | ||
| 2013-05-01T11:32 | 807 | 920 | 12.9 | 8.2 | ||
| 2013-05-01T11:32 | 859 | 914 | 12.5 | 7.6 | ||
| 2013-05-01T11:33 | 916 | 908 | 12.1 | 5.9 | ||
| 2013-05-01T11:33 | 929 | 907 | 12.5 | 4.5 | ||
| 2013-05-01T11:33 | 994 | 900 | 12.4 | 2.0 | ||
| 2013-05-01T11:33 | 1064 | 892 | 19 | 9 | ||
| 2013-05-01T11:34 | 1246 | 873 | 10.3 | 2.6 | ||
| 2013-05-01T11:34 | 1351 | 862 | 10.6 | 6.9 | ||
| 2013-05-01T11:34 | 1373 | 860 | 11.2 | 10.1 | ||
| 2013-05-01T11:34 | 1418 | 855 | 12.0 | 11.7 | 1 | 4 |
| 2013-05-01T11:35 | 1787 | 818 | 10.9 | 10.3 | 340 | 6 |
| 2013-05-01T11:36 | 2151 | 784 | 314 | 10 | ||
| 2013-05-01T11:36 | 2268 | 773 | 10.0 | 10.0 | ||
| 2013-05-01T11:37 | 2489 | 752 | 294 | 8 | ||
| 2013-05-01T11:37 | 2569 | 745 | 8.1 | 8.1 | ||
| 2013-05-01T11:38 | 2814 | 723 | 7.2 | 7.2 | ||
| 2013-05-01T11:38 | 2856 | 720 | 268 | 10 | ||
| 2013-05-01T11:39 | 3037 | 704 | 6.7 | 6.7 | ||
| 2013-05-01T11:39 | 3209 | 689 | 268 | 14 | ||
| 2013-05-01T11:40 | 3565 | 660 | 283 | 14 | ||
| 2013-05-01T11:41 | 3899 | 633 | 288 | 15 | ||
| 2013-05-01T11:42 | 4083 | 619 | 0.7 | 0.7 | ||
| 2013-05-01T11:42 | 4230 | 608 | 299 | 13 | ||
| 2013-05-01T11:43 | 4588 | 581 | 300 | 15 | ||
| 2013-05-01T11:44 | 4804 | 566 | -3.7 | -4.1 | ||
| 2013-05-01T11:44 | 4938 | 556 | 295 | 16 | ||
| 2013-05-01T11:44 | 5019 | 550 | -5.0 | -5.8 | ||
| 2013-05-01T11:44 | 5097 | 545 | -4.9 | -5.9 | ||
| 2013-05-01T11:45 | 5228 | 536 | -5.8 | -7.9 | ||
| 2013-05-01T11:45 | 5265 | 534 | 279 | 16 | ||
| 2013-05-01T11:45 | 5281 | 532 | -6.3 | -10.2 | ||
| 2013-05-01T11:45 | 5301 | 531 | -6.5 | -13.2 | ||
| 2013-05-01T11:45 | 5317 | 530 | -6.7 | -12.2 | ||
| 2013-05-01T11:45 | 5338 | 529 | -6.9 | -11.3 | ||
| 2013-05-01T11:45 | 5363 | 527 | -7.1 | -13.3 | ||
| 2013-05-01T11:45 | 5391 | 525 | -7.4 | -19.6 | ||
| 2013-05-01T11:45 | 5410 | 524 | -7.5 | -20.0 | ||
| 2013-05-01T11:46 | 5420 | 523 | -7.6 | -20.1 | ||
| 2013-05-01T11:46 | 5463 | 520 | -8.0 | -24.2 | ||
| 2013-05-01T11:46 | 5482 | 519 | -8.2 | -27.2 | ||
| 2013-05-01T11:46 | 5493 | 518 | -8.3 | -22.4 | ||
| 2013-05-01T11:46 | 5509 | 517 | -8.5 | -26.0 | ||
| 2013-05-01T11:46 | 5541 | 515 | -8.8 | -27.7 | ||
| 2013-05-01T11:46 | 5551 | 514 | -8.9 | -29.0 | ||
| 2013-05-01T11:46 | 5568 | 513 | -9.0 | -24.2 | ||
| 2013-05-01T11:46 | 5583 | 512 | 272 | 17 | ||
| 2013-05-01T11:46 | 5589 | 512 | -9.2 | -25.6 | ||
| 2013-05-01T11:46 | 5598 | 511 | -9.3 | -22.6 | ||
| 2013-05-01T11:46 | 5615 | 510 | -9.5 | -26.4 | ||
| 2013-05-01T11:46 | 5630 | 509 | -9.6 | -23.6 | ||
| 2013-05-01T11:46 | 5640 | 508 | -9.5 | -23.5 | ||
| 2013-05-01T11:46 | 5662 | 507 | -9.5 | -25.5 | ||
| 2013-05-01T11:46 | 5671 | 506 | -9.5 | -23.5 | ||
| 2013-05-01T11:46 | 5695 | 505 | -9.9 | -23.5 | ||
| 2013-05-01T11:46 | 5708 | 504 | -9.9 | -23.9 | ||
| 2013-05-01T11:46 | 5721 | 503 | -10.0 | -20.5 | ||
| 2013-05-01T11:47 | 5747 | 501 | -9.7 | -23.3 | ||
| 2013-05-01T11:47 | 5786 | 499 | -9.9 | -24.2 | ||
| 2013-05-01T11:47 | 5799 | 498 | -9.9 | -21.9 | ||
| 2013-05-01T11:47 | 5819 | 497 | -9.9 | -22.2 | ||
| 2013-05-01T11:47 | 5831 | 496 | -10.0 | -21.6 | ||
| 2013-05-01T11:47 | 5849 | 495 | -9.9 | -22.8 | ||
| 2013-05-01T11:47 | 5861 | 494 | -9.8 | -24.1 | ||
| 2013-05-01T11:47 | 5884 | 493 | 273 | 20 | ||
| 2013-05-01T11:47 | 5889 | 492 | -9.9 | -22.8 | ||
| 2013-05-01T11:47 | 5909 | 491 | -9.9 | -21.0 | ||
| 2013-05-01T11:47 | 5921 | 490 | -9.9 | -20.4 | ||
| 2013-05-01T11:47 | 5935 | 489 | -10.0 | -21.6 | ||
| 2013-05-01T11:47 | 5971 | 487 | -10.2 | -24.1 | ||
| 2013-05-01T11:47 | 5990 | 486 | -10.2 | -23.4 | ||
| 2013-05-01T11:47 | 6002 | 485 | -10.2 | -21.8 | ||
| 2013-05-01T11:48 | 6033 | 483 | -10.2 | -21.5 | ||
| 2013-05-01T11:48 | 6045 | 482 | -10.2 | -22.1 | ||
| 2013-05-01T11:48 | 6065 | 481 | -10.2 | -22.1 | ||
| 2013-05-01T11:48 | 6085 | 480 | -10.5 | -25.1 | ||
| 2013-05-01T11:48 | 6129 | 477 | -10.5 | -25.9 | ||
| 2013-05-01T11:48 | 6145 | 476 | -10.6 | -28.7 | ||
| 2013-05-01T11:48 | 6174 | 474 | 273 | 21 | ||
| 2013-05-01T11:48 | 6189 | 473 | -10.5 | -23.4 | ||
| 2013-05-01T11:48 | 6256 | 469 | -11.0 | -20.6 | ||
| 2013-05-01T11:48 | 6321 | 465 | -11.1 | -21.0 | ||
| 2013-05-01T11:49 | 6343 | 464 | -10.9 | -17.8 | ||
| 2013-05-01T11:49 | 6384 | 462 | -11.1 | -18.6 | ||
| 2013-05-01T11:49 | 6431 | 459 | -11.1 | -19.3 | ||
| 2013-05-01T11:49 | 6486 | 455 | 276 | 21 | ||
| 2013-05-01T11:49 | 6491 | 455 | -11.5 | -18.7 | ||
| 2013-05-01T11:49 | 6547 | 452 | -11.9 | -19.6 | ||
| 2013-05-01T11:50 | 6739 | 441 | -13.3 | -22.7 | ||
| 2013-05-01T11:50 | 6815 | 436 | -13.8 | -23.2 | ||
| 2013-05-01T11:50 | 6820 | 436 | 276 | 19 | ||
| 2013-05-01T11:50 | 6854 | 434 | -14.0 | -22.9 | ||
| 2013-05-01T11:51 | 7009 | 425 | -15.1 | -23.9 | ||
| 2013-05-01T11:51 | 7151 | 417 | 275 | 21 | ||
| 2013-05-01T11:51 | 7172 | 416 | -16.2 | -22.6 | ||
| 2013-05-01T11:52 | 7483 | 399 | 273 | 22 | ||
| 2013-05-01T11:52 | 7511 | 398 | -18.6 | -25.6 | ||
| 2013-05-01T11:53 | 7766 | 384 | -20.2 | -27.3 | ||
| 2013-05-01T11:53 | 7814 | 382 | 270 | 19 | ||
| 2013-05-01T11:53 | 7876 | 379 | -20.9 | -30.2 | ||
| 2013-05-01T11:54 | 8000 | 372 | -21.9 | -31.6 | ||
| 2013-05-01T11:54 | 8125 | 366 | 274 | 23 | ||
| 2013-05-01T11:54 | 8171 | 364 | -23.1 | -32.7 | ||
| 2013-05-01T11:55 | 8482 | 349 | 274 | 26 | ||
| 2013-05-01T11:55 | 8537 | 346 | -25.4 | -39.7 | ||
| 2013-05-01T11:56 | 8829 | 332 | 271 | 29 | ||
| 2013-05-01T11:56 | 8840 | 332 | -27.7 | -42.5 | ||
| 2013-05-01T11:57 | 9002 | 324 | -28.5 | -44.5 | ||
| 2013-05-01T11:57 | 9165 | 317 | 260 | 32 | ||
| 2013-05-01T11:57 | 9232 | 314 | -29.9 | -42.9 | ||
| 2013-05-01T11:58 | 9358 | 309 | -30.0 | -40.0 | ||
| 2013-05-01T11:58 | 9502 | 302 | 258 | 34 | ||
| 2013-05-01T11:59 | 9821 | 289 | 256 | 35 | ||
| 2013-05-01T12:00 | 10139 | 276 | 257 | 36 | ||
| 2013-05-01T12:00 | 10148 | 276 | -37.4 | -42.2 | ||
| 2013-05-01T12:01 | 10485 | 262 | -40.0 | -44.4 | 267 | 37 |
| 2013-05-01T12:02 | 10825 | 250 | 273 | 39 | ||
| 2013-05-01T12:03 | 11122 | 239 | 276 | 41 | ||
| 2013-05-01T12:04 | 11404 | 229 | 275 | 42 | ||
| 2013-05-01T12:05 | 11630 | 221 | -48.3 | |||
| 2013-05-01T12:05 | 11693 | 219 | 273 | 44 | ||
| 2013-05-01T12:06 | 11964 | 210 | 273 | 45 | ||
| 2013-05-01T12:07 | 12263 | 201 | 275 | 46 | ||
| 2013-05-01T12:08 | 12544 | 192 | 274 | 48 | ||
| 2013-05-01T12:09 | 12813 | 184 | 273 | 47 | ||
| 2013-05-01T12:10 | 13015 | 178 | -59.2 | |||
| 2013-05-01T12:10 | 13078 | 177 | 272 | 45 | ||
| 2013-05-01T12:11 | 13375 | 168 | 269 | 44 | ||
| 2013-05-01T12:12 | 13602 | 162 | -63.0 | |||
| 2013-05-01T12:12 | 13690 | 160 | 267 | 42 | ||
| 2013-05-01T12:13 | 13991 | 152 | 263 | 40 | ||
| 2013-05-01T12:14 | 14305 | 145 | 255 | 40 | ||
| 2013-05-01T12:14 | 14439 | 141 | -68.9 | |||
| 2013-05-01T12:15 | 14637 | 137 | 259 | 37 | ||
| 2013-05-01T12:15 | 14739 | 134 | -67.8 | |||
| 2013-05-01T12:16 | 14975 | 129 | 263 | 32 | ||
| 2013-05-01T12:17 | 15254 | 123 | -70.4 | |||
| 2013-05-01T12:17 | 15297 | 122 | 258 | 31 | ||
| 2013-05-01T12:18 | 15605 | 116 | -71.7 | |||
| 2013-05-01T12:18 | 15666 | 115 | 261 | 27 | ||
| 2013-05-01T12:18 | 15692 | 115 | -70.8 | |||
| 2013-05-01T12:19 | 16025 | 108 | 262 | 29 | ||
| 2013-05-01T12:19 | 16145 | 106 | -74.5 | |||
| 2013-05-01T12:20 | 16380 | 102 | 271 | 30 | ||
| 2013-05-01T12:21 | 16660 | 97 | -74.7 | |||
| 2013-05-01T12:21 | 16763 | 95 | 272 | 24 | ||
| 2013-05-01T12:22 | 17131 | 89 | 262 | 20 | ||
| 2013-05-01T12:22 | 17222 | 88 | -77.4 | |||
| 2013-05-01T12:23 | 17509 | 84 | 271 | 19 | ||
| 2013-05-01T12:23 | 17530 | 83 | -76.9 | |||
| 2013-05-01T12:23 | 17692 | 81 | -74.3 | |||
| 2013-05-01T12:24 | 17889 | 78 | 279 | 14 | ||
| 2013-05-01T12:24 | 18055 | 76 | -74.3 | |||
| 2013-05-01T12:25 | 18281 | 73 | 303 | 11 | ||
| 2013-05-01T12:26 | 18659 | 69 | 247 | 8 | ||
| 2013-05-01T12:27 | 18893 | 66 | -73.6 | |||
| 2013-05-01T12:27 | 19019 | 65 | 298 | 5 | ||
| 2013-05-01T12:27 | 19083 | 64 | -70.7 | |||
| 2013-05-01T12:28 | 19339 | 61 | 252 | 4 | ||
| 2013-05-01T12:29 | 19670 | 58 | 317 | 1 | ||
| 2013-05-01T12:29 | 19743 | 57 | -68.3 | |||
| 2013-05-01T12:30 | 19936 | 55 | -64.8 | |||
| 2013-05-01T12:30 | 20025 | 55 | 157 | 4 | ||
| 2013-05-01T12:31 | 20336 | 52 | -63.2 | |||
| 2013-05-01T12:31 | 20360 | 52 | 138 | 7 | ||
| 2013-05-01T12:32 | 20677 | 49 | 184 | 9 | ||
| 2013-05-01T12:32 | 20816 | 48 | -63.1 | |||
| 2013-05-01T12:33 | 20998 | 47 | 209 | 7 | ||
| 2013-05-01T12:34 | 21270 | 45 | -60.8 | |||
| 2013-05-01T12:34 | 21326 | 44 | 165 | 7 | ||
| 2013-05-01T12:35 | 21659 | 42 | 193 | 8 | ||
| 2013-05-01T12:36 | 21809 | 41 | -60.3 | |||
| 2013-05-01T12:36 | 21979 | 40 | 270 | 7 | ||
| 2013-05-01T12:37 | 22317 | 38 | 299 | 7 | ||
| 2013-05-01T12:38 | 22659 | 36 | 310 | 7 | ||
| 2013-05-01T12:38 | 22747 | 35 | -59.0 | |||
| 2013-05-01T12:39 | 23002 | 34 | 360 | 7 | ||
| 2013-05-01T12:40 | 23326 | 32 | 41 | 4 | ||
| 2013-05-01T12:41 | 23669 | 30 | 62 | 5 | ||
| 2013-05-01T12:42 | 24011 | 29 | 84 | 5 | ||
| 2013-05-01T12:43 | 24374 | 27 | 87 | 2 | ||
| 2013-05-01T12:43 | 24445 | 27 | -56.0 | |||
| 2013-05-01T12:44 | 24711 | 26 | 102 | 4 | ||
| 2013-05-01T12:45 | 25068 | 24 | 108 | 4 | ||
| 2013-05-01T12:46 | 25419 | 23 | 130 | 3 | ||
| 2013-05-01T12:47 | 25793 | 22 | 150 | 5 | ||
| 2013-05-01T12:48 | 26066 | 21 | -51.3 | |||
| 2013-05-01T12:48 | 26192 | 21 | 116 | 4 | ||
| 2013-05-01T12:49 | 26550 | 19 | 150 | 5 | ||
| 2013-05-01T12:50 | 26930 | 18 | 154 | 3 | ||
| 2013-05-01T12:50 | 27111 | 18 | -50.6 | |||
| 2013-05-01T12:51 | 27297 | 17 | 167 | 5 | ||
| 2013-05-01T12:52 | 27725 | 16 | 249 | 3 | ||
| 2013-05-01T12:53 | 28014 | 16 | -49.7 | |||
| 2013-05-01T12:53 | 28142 | 15 | 185 | 1 | ||
| 2013-05-01T12:54 | 28588 | 14 | 182 | 6 | ||
| 2013-05-01T12:55 | 28823 | 14 | -48.7 | |||
| 2013-05-01T12:55 | 28969 | 13 | 160 | 5 | ||
| 2013-05-01T12:55 | 29069 | 13 | -46.6 | |||
| 2013-05-01T12:56 | 29379 | 13 | 192 | 4 | ||
| 2013-05-01T12:57 | 29762 | 12 | -43.3 | |||
| 2013-05-01T12:57 | 29819 | 12 | 202 | 7 | ||
| 2013-05-01T12:57 | 29876 | 12 | -44.4 | |||
| 2013-05-01T23:30 | 8 | 1012 | 21.4 | 14.6 | 40 | 3 |
| 2013-05-01T23:30 | 17 | 1011 | 20.7 | 13.7 | ||
| 2013-05-01T23:31 | 248 | 984 | 18.5 | 11.3 | ||
| 2013-05-01T23:31 | 296 | 979 | 18.0 | 12.0 | ||
| 2013-05-01T23:31 | 329 | 975 | 20 | 7 | ||
| 2013-05-01T23:31 | 383 | 969 | 17.2 | 11.2 | ||
| 2013-05-01T23:31 | 393 | 968 | 17.1 | 9.8 | ||
| 2013-05-01T23:32 | 635 | 940 | 19 | 7 | ||
| 2013-05-01T23:33 | 835 | 918 | 13.1 | 9.4 | ||
| 2013-05-01T23:33 | 954 | 906 | 16 | 9 | ||
| 2013-05-01T23:33 | 1031 | 897 | 11.2 | 6.7 | ||
| 2013-05-01T23:33 | 1048 | 895 | 11.3 | 5.4 | ||
| 2013-05-01T23:34 | 1119 | 888 | 10.8 | 3.8 | ||
| 2013-05-01T23:34 | 1146 | 885 | 11.0 | 1.0 | ||
| 2013-05-01T23:34 | 1162 | 883 | 11.6 | -4.5 | ||
| 2013-05-01T23:34 | 1224 | 877 | 11.5 | -8.9 | ||
| 2013-05-01T23:34 | 1286 | 870 | 21 | 10 | ||
| 2013-05-01T23:34 | 1442 | 854 | 10.6 | -10.3 | ||
| 2013-05-01T23:35 | 1601 | 838 | 11.3 | -17.1 | ||
| 2013-05-01T23:35 | 1628 | 835 | 346 | 3 | ||
| 2013-05-01T23:36 | 1780 | 820 | 11.4 | -20.4 | ||
| 2013-05-01T23:36 | 1811 | 817 | 12.4 | -26.3 | ||
| 2013-05-01T23:36 | 1835 | 815 | 13.1 | -35.4 | ||
| 2013-05-01T23:36 | 1914 | 807 | 295 | 5 | ||
| 2013-05-01T23:36 | 1948 | 804 | 12.7 | -20.8 | ||
| 2013-05-01T23:36 | 2004 | 798 | 12.2 | -7.3 | ||
| 2013-05-01T23:36 | 2058 | 793 | 11.8 | -1.7 | ||
| 2013-05-01T23:37 | 2074 | 792 | 11.6 | 1.5 | ||
| 2013-05-01T23:37 | 2089 | 790 | 11.5 | 6.2 | ||
| 2013-05-01T23:37 | 2111 | 788 | 11.3 | 6.4 | ||
| 2013-05-01T23:37 | 2234 | 777 | 269 | 7 | ||
| 2013-05-01T23:37 | 2367 | 764 | 9.6 | 8.0 | ||
| 2013-05-01T23:38 | 2460 | 756 | 9.1 | 6.4 | ||
| 2013-05-01T23:38 | 2557 | 747 | 296 | 10 | ||
| 2013-05-01T23:38 | 2606 | 743 | 8.5 | 6.3 | ||
| 2013-05-01T23:39 | 2753 | 730 | 7.6 | 6.4 | ||
| 2013-05-01T23:39 | 2822 | 724 | 7.9 | 5.4 | ||
| 2013-05-01T23:39 | 2853 | 721 | 298 | 8 | ||
| 2013-05-01T23:39 | 2929 | 714 | 8.4 | 4.0 | ||
| 2013-05-01T23:40 | 3152 | 695 | 7.2 | 2.5 | ||
| 2013-05-01T23:40 | 3167 | 694 | 290 | 11 | ||
| 2013-05-01T23:41 | 3377 | 677 | 6.0 | 1.9 | ||
| 2013-05-01T23:41 | 3477 | 668 | 5.5 | 1.4 | ||
| 2013-05-01T23:41 | 3494 | 667 | 285 | 15 | ||
| 2013-05-01T23:42 | 3818 | 641 | 4.8 | -0.2 | ||
| 2013-05-01T23:42 | 3828 | 640 | 271 | 16 | ||
| 2013-05-01T23:43 | 4020 | 625 | 3.3 | -2.2 | ||
| 2013-05-01T23:43 | 4153 | 615 | 275 | 15 | ||
| 2013-05-01T23:43 | 4305 | 604 | 0.7 | -3.0 | ||
| 2013-05-01T23:44 | 4332 | 602 | 0.5 | -3.2 | ||
| 2013-05-01T23:44 | 4342 | 601 | 0.4 | -3.2 | ||
| 2013-05-01T23:44 | 4475 | 591 | 269 | 14 | ||
| 2013-05-01T23:45 | 4801 | 567 | 269 | 13 | ||
| 2013-05-01T23:45 | 4836 | 565 | -4.0 | -5.7 | ||
| 2013-05-01T23:46 | 5130 | 544 | 261 | 14 | ||
| 2013-05-01T23:46 | 5174 | 541 | -6.7 | -7.2 | ||
| 2013-05-01T23:46 | 5219 | 538 | -6.8 | -7.7 | ||
| 2013-05-01T23:46 | 5241 | 536 | -6.3 | -8.9 | ||
| 2013-05-01T23:46 | 5276 | 534 | -5.2 | -9.5 | ||
| 2013-05-01T23:47 | 5478 | 520 | 264 | 20 | ||
| 2013-05-01T23:47 | 5495 | 519 | -6.1 | -14.6 | ||
| 2013-05-01T23:48 | 5684 | 507 | -7.5 | -16.6 | ||
| 2013-05-01T23:48 | 5828 | 498 | 268 | 20 | ||
| 2013-05-01T23:48 | 5851 | 496 | -8.9 | -17.9 | ||
| 2013-05-01T23:48 | 5917 | 492 | -9.2 | -19.0 | ||
| 2013-05-01T23:49 | 6017 | 486 | -9.8 | -18.0 | ||
| 2013-05-01T23:49 | 6057 | 483 | -10.1 | -18.1 | ||
| 2013-05-01T23:49 | 6079 | 482 | -10.3 | -15.3 | ||
| 2013-05-01T23:49 | 6130 | 478 | -10.7 | -15.8 | ||
| 2013-05-01T23:49 | 6175 | 476 | 271 | 18 | ||
| 2013-05-01T23:50 | 6442 | 459 | -13.1 | -16.9 | ||
| 2013-05-01T23:50 | 6515 | 455 | 270 | 18 | ||
| 2013-05-01T23:50 | 6654 | 447 | -14.1 | -20.2 | ||
| 2013-05-01T23:51 | 6798 | 438 | -14.4 | -19.4 | ||
| 2013-05-01T23:51 | 6841 | 436 | -14.5 | -20.4 | ||
| 2013-05-01T23:51 | 6846 | 436 | 268 | 21 | ||
| 2013-05-01T23:52 | 7031 | 425 | -15.9 | -19.3 | ||
| 2013-05-01T23:52 | 7152 | 418 | -17.0 | -20.5 | ||
| 2013-05-01T23:52 | 7179 | 417 | 266 | 21 | ||
| 2013-05-01T23:53 | 7424 | 403 | -18.8 | -22.7 | ||
| 2013-05-01T23:53 | 7534 | 397 | 263 | 20 | ||
| 2013-05-01T23:54 | 7855 | 381 | -21.4 | -24.2 | ||
| 2013-05-01T23:54 | 7906 | 378 | 260 | 19 | ||
| 2013-05-01T23:54 | 8035 | 371 | -22.5 | -25.4 | ||
| 2013-05-01T23:54 | 8085 | 369 | -22.8 | -25.9 | ||
| 2013-05-01T23:55 | 8280 | 359 | 261 | 23 | ||
| 2013-05-01T23:56 | 8508 | 348 | -25.1 | -28.5 | ||
| 2013-05-01T23:56 | 8668 | 340 | 259 | 29 | ||
| 2013-05-01T23:57 | 8892 | 330 | -27.9 | -30.3 | ||
| 2013-05-01T23:57 | 8931 | 328 | -28.2 | -30.3 | ||
| 2013-05-01T23:57 | 9052 | 323 | 262 | 32 | ||
| 2013-05-01T23:58 | 9434 | 306 | 261 | 34 | ||
| 2013-05-01T23:58 | 9449 | 305 | -31.9 | -34.2 | ||
| 2013-05-01T23:59 | 9731 | 293 | -33.8 | -36.1 | ||
| 2013-05-01T23:59 | 9817 | 290 | 265 | 35 | ||
| 2013-05-02T00:00 | 10037 | 281 | -36.3 | -39.5 | ||
| 2013-05-02T00:00 | 10194 | 274 | 262 | 37 | ||
| 2013-05-02T00:01 | 10457 | 264 | -40.0 | -43.2 | ||
| 2013-05-02T00:01 | 10598 | 259 | 258 | 36 | ||
| 2013-05-02T00:02 | 10993 | 244 | 255 | 41 | ||
| 2013-05-02T00:03 | 11363 | 231 | 260 | 45 | ||
| 2013-05-02T00:04 | 11721 | 219 | 258 | 45 | ||
| 2013-05-02T00:05 | 12084 | 207 | 257 | 46 | ||
| 2013-05-02T00:06 | 12325 | 199 | -54.7 | |||
| 2013-05-02T00:06 | 12471 | 195 | 261 | 45 | ||
| 2013-05-02T00:07 | 12832 | 184 | 265 | 47 | ||
| 2013-05-02T00:08 | 13174 | 174 | 266 | 47 | ||
| 2013-05-02T00:09 | 13508 | 165 | 265 | 44 | ||
| 2013-05-02T00:09 | 13670 | 160 | -65.5 | |||
| 2013-05-02T00:10 | 13847 | 156 | 263 | 39 | ||
| 2013-05-02T00:10 | 13897 | 155 | -65.7 | |||
| 2013-05-02T00:11 | 14105 | 149 | -66.3 | |||
| 2013-05-02T00:11 | 14215 | 147 | 265 | 35 | ||
| 2013-05-02T00:12 | 14434 | 141 | -66.8 | |||
| 2013-05-02T00:12 | 14642 | 137 | 262 | 34 | ||
| 2013-05-02T00:13 | 15022 | 128 | -69.3 | |||
| 2013-05-02T00:13 | 15116 | 126 | 267 | 29 | ||
| 2013-05-02T00:14 | 15361 | 121 | -71.1 | |||
| 2013-05-02T00:14 | 15524 | 118 | 270 | 32 | ||
| 2013-05-02T00:15 | 15873 | 111 | 281 | 33 | ||
| 2013-05-02T00:16 | 16146 | 106 | -75.3 | |||
| 2013-05-02T00:16 | 16223 | 105 | 283 | 30 | ||
| 2013-05-02T00:17 | 16559 | 99 | 275 | 29 | ||
| 2013-05-02T00:18 | 16773 | 95 | -76.4 | |||
| 2013-05-02T00:18 | 16890 | 93 | 289 | 29 | ||
| 2013-05-02T00:18 | 16965 | 92 | -74.4 | |||
| 2013-05-02T00:19 | 17271 | 87 | 290 | 18 | ||
| 2013-05-02T00:19 | 17305 | 87 | -73.2 | |||
| 2013-05-02T00:20 | 17672 | 81 | -75.4 | |||
| 2013-05-02T00:20 | 17736 | 81 | 291 | 17 | ||
| 2013-05-02T00:20 | 17883 | 79 | -73.4 | |||
| 2013-05-02T00:21 | 18126 | 75 | 305 | 12 | ||
| 2013-05-02T00:22 | 18492 | 71 | 287 | 8 | ||
| 2013-05-02T00:22 | 18657 | 69 | -76.2 | |||
| 2013-05-02T00:23 | 18820 | 67 | -72.9 | |||
| 2013-05-02T00:23 | 18829 | 67 | 273 | 8 | ||
| 2013-05-02T00:24 | 19145 | 63 | -72.7 | |||
| 2013-05-02T00:24 | 19173 | 63 | 278 | 11 | ||
| 2013-05-02T00:25 | 19403 | 61 | -70.7 | |||
| 2013-05-02T00:25 | 19532 | 59 | 282 | 6 | ||
| 2013-05-02T00:25 | 19593 | 59 | -67.2 | |||
| 2013-05-02T00:26 | 19889 | 56 | 290 | 6 | ||
| 2013-05-02T00:26 | 19900 | 56 | -66.2 | |||
| 2013-05-02T00:27 | 20133 | 54 | -65.2 | |||
| 2013-05-02T00:27 | 20248 | 53 | 300 | 7 | ||
| 2013-05-02T00:28 | 20436 | 51 | -65.6 | |||
| 2013-05-02T00:28 | 20593 | 50 | 312 | 10 | ||
| 2013-05-02T00:29 | 20793 | 48 | -64.3 | |||
| 2013-05-02T00:29 | 20935 | 47 | 347 | 7 | ||
| 2013-05-02T00:30 | 21312 | 44 | 110 | 2 | ||
| 2013-05-02T00:30 | 21482 | 43 | -62.0 | |||
| 2013-05-02T00:31 | 21672 | 42 | 55 | 4 | ||
| 2013-05-02T00:31 | 21808 | 41 | -60.1 | |||
| 2013-05-02T00:32 | 22058 | 39 | 73 | 7 | ||
| 2013-05-02T00:33 | 22420 | 37 | 127 | 10 | ||
| 2013-05-02T00:34 | 22680 | 36 | -57.9 | |||
| 2013-05-02T00:34 | 22806 | 35 | 148 | 7 | ||
| 2013-05-02T00:35 | 23123 | 33 | -56.2 | |||
| 2013-05-02T00:35 | 23181 | 33 | 162 | 7 | ||
| 2013-05-02T00:36 | 23561 | 31 | 200 | 7 | ||
| 2013-05-02T00:37 | 23944 | 29 | 191 | 5 | ||
| 2013-05-02T00:38 | 24329 | 27 | 156 | 5 | ||
| 2013-05-02T00:38 | 24423 | 27 | -53.8 | |||
| 2013-05-02T00:39 | 24715 | 26 | 165 | 6 | ||
| 2013-05-02T00:40 | 24969 | 25 | -54.2 | |||
| 2013-05-02T00:40 | 25126 | 24 | 133 | 5 | ||
| 2013-05-02T00:41 | 25538 | 23 | 107 | 7 | ||
| 2013-05-02T00:42 | 25920 | 21 | 132 | 8 | ||
| 2013-05-02T00:43 | 26168 | 21 | -50.5 | |||
| 2013-05-02T00:43 | 26328 | 20 | 137 | 9 | ||
| 2013-05-02T00:44 | 26594 | 19 | -48.7 | |||
| 2013-05-02T00:44 | 26732 | 19 | 148 | 9 | ||
| 2013-05-02T00:45 | 27017 | 18 | -48.1 | |||
| 2013-05-02T00:45 | 27164 | 18 | 176 | 13 | ||
| 2013-05-02T00:46 | 27548 | 17 | 162 | 8 | ||
| 2013-05-02T00:47 | 27955 | 16 | 169 | 8 | ||
| 2013-05-02T00:48 | 28344 | 15 | -47.5 | |||
| 2013-05-02T00:48 | 28389 | 15 | 182 | 10 | ||
| 2013-05-02T00:49 | 28713 | 14 | -45.2 | |||
| 2013-05-02T11:30 | 8 | 1012 | 20.4 | 12.9 | 20 | 2 |
| 2013-05-02T11:30 | 16 | 1011 | 19.8 | 11.8 | ||
| 2013-05-02T11:31 | 211 | 989 | 18.6 | 11.2 | ||
| 2013-05-02T11:31 | 300 | 979 | 39 | 4 | ||
| 2013-05-02T11:32 | 621 | 942 | 50 | 3 | ||
| 2013-05-02T11:33 | 925 | 909 | 12.0 | 8.8 | ||
| 2013-05-02T11:33 | 946 | 907 | 54 | 3 | ||
| 2013-05-02T11:33 | 1054 | 895 | 11.2 | 7.1 | ||
| 2013-05-02T11:33 | 1080 | 892 | 11.2 | 5.1 | ||
| 2013-05-02T11:34 | 1157 | 884 | 10.9 | 0.9 | ||
| 2013-05-02T11:34 | 1172 | 883 | 11.3 | -3.2 | ||
| 2013-05-02T11:34 | 1218 | 878 | 11.5 | -6.4 | ||
| 2013-05-02T11:34 | 1259 | 873 | 24 | 2 | ||
| 2013-05-02T11:34 | 1290 | 870 | 12.6 | -11.8 | ||
| 2013-05-02T11:35 | 1423 | 856 | 13.4 | -20.3 | ||
| 2013-05-02T11:35 | 1482 | 850 | 14.0 | -30.7 | ||
| 2013-05-02T11:35 | 1493 | 849 | 13.9 | -34.9 | ||
| 2013-05-02T11:35 | 1509 | 848 | 14.7 | -34.4 | ||
| 2013-05-02T11:35 | 1553 | 843 | 14.9 | -34.3 | ||
| 2013-05-02T11:35 | 1574 | 841 | 304 | 4 | ||
| 2013-05-02T11:35 | 1639 | 835 | 14.6 | -30.2 | ||
| 2013-05-02T11:35 | 1644 | 834 | 14.6 | -30.2 | ||
| 2013-05-02T11:36 | 1871 | 812 | 14.0 | -34.8 | ||
| 2013-05-02T11:36 | 1905 | 809 | 327 | 3 | ||
| 2013-05-02T11:36 | 2017 | 798 | 12.7 | -22.3 | ||
| 2013-05-02T11:36 | 2061 | 794 | 12.4 | -28.7 | ||
| 2013-05-02T11:37 | 2140 | 786 | 11.8 | -36.3 | ||
| 2013-05-02T11:37 | 2174 | 783 | 11.6 | -36.4 | ||
| 2013-05-02T11:37 | 2208 | 780 | 11.3 | -15.3 | ||
| 2013-05-02T11:37 | 2241 | 777 | 320 | 4 | ||
| 2013-05-02T11:37 | 2253 | 776 | 10.9 | -6.9 | ||
| 2013-05-02T11:37 | 2263 | 775 | 10.8 | -3.7 | ||
| 2013-05-02T11:37 | 2269 | 774 | 10.7 | -6.2 | ||
| 2013-05-02T11:37 | 2371 | 765 | 9.8 | 0.1 | ||
| 2013-05-02T11:38 | 2484 | 755 | 8.7 | 3.3 | ||
| 2013-05-02T11:38 | 2577 | 746 | 8.4 | 3.4 | ||
| 2013-05-02T11:38 | 2583 | 746 | 305 | 9 | ||
| 2013-05-02T11:38 | 2675 | 737 | 8.3 | 6.3 | ||
| 2013-05-02T11:39 | 2766 | 729 | 8.2 | 5.8 | ||
| 2013-05-02T11:39 | 2921 | 716 | 265 | 9 | ||
| 2013-05-02T11:39 | 3049 | 705 | 6.2 | 5.6 | ||
| 2013-05-02T11:40 | 3240 | 688 | 261 | 10 | ||
| 2013-05-02T11:40 | 3340 | 680 | 4.5 | 4.1 | ||
| 2013-05-02T11:41 | 3434 | 672 | 4.3 | 3.1 | ||
| 2013-05-02T11:41 | 3507 | 666 | 3.8 | 3.4 | ||
| 2013-05-02T11:41 | 3554 | 662 | 267 | 10 | ||
| 2013-05-02T11:41 | 3559 | 662 | 3.4 | 2.4 | ||
| 2013-05-02T11:41 | 3679 | 652 | 2.5 | 1.9 | ||
| 2013-05-02T11:42 | 3811 | 642 | 1.8 | 1.5 | ||
| 2013-05-02T11:42 | 3862 | 638 | 261 | 11 | ||
| 2013-05-02T11:42 | 3893 | 635 | 1.5 | 0.3 | ||
| 2013-05-02T11:42 | 3904 | 634 | 1.5 | 0.3 | ||
| 2013-05-02T11:43 | 4105 | 619 | 0.3 | -0.4 | ||
| 2013-05-02T11:43 | 4171 | 614 | 269 | 13 | ||
| 2013-05-02T11:43 | 4264 | 607 | -0.4 | -1.1 | ||
| 2013-05-02T11:44 | 4393 | 597 | -0.7 | -1.8 | ||
| 2013-05-02T11:44 | 4490 | 590 | 270 | 17 | ||
| 2013-05-02T11:45 | 4663 | 577 | -2.2 | -3.2 | ||
| 2013-05-02T11:45 | 4823 | 566 | 270 | 19 | ||
| 2013-05-02T11:46 | 5025 | 551 | -4.0 | -5.1 | ||
| 2013-05-02T11:46 | 5148 | 543 | 270 | 20 | ||
| 2013-05-02T11:46 | 5179 | 541 | -4.6 | -7.0 | ||
| 2013-05-02T11:46 | 5283 | 534 | -4.9 | -7.5 | ||
| 2013-05-02T11:47 | 5399 | 526 | -5.4 | -10.6 | ||
| 2013-05-02T11:47 | 5437 | 523 | -5.3 | -12.7 | ||
| 2013-05-02T11:47 | 5476 | 521 | 273 | 19 | ||
| 2013-05-02T11:47 | 5514 | 518 | -5.4 | -12.6 | ||
| 2013-05-02T11:47 | 5597 | 513 | -5.8 | -12.3 | ||
| 2013-05-02T11:48 | 5680 | 507 | -6.3 | -14.3 | ||
| 2013-05-02T11:48 | 5787 | 500 | 275 | 21 | ||
| 2013-05-02T11:49 | 5965 | 489 | -8.4 | -18.2 | ||
| 2013-05-02T11:49 | 6002 | 487 | -8.7 | -15.5 | ||
| 2013-05-02T11:49 | 6043 | 484 | -9.0 | -15.8 | ||
| 2013-05-02T11:49 | 6098 | 481 | 272 | 24 | ||
| 2013-05-02T11:49 | 6102 | 480 | -9.0 | -13.6 | ||
| 2013-05-02T11:49 | 6190 | 475 | -9.2 | -12.2 | ||
| 2013-05-02T11:50 | 6421 | 461 | 269 | 24 | ||
| 2013-05-02T11:51 | 6655 | 447 | -13.2 | -14.6 | ||
| 2013-05-02T11:51 | 6756 | 441 | 264 | 25 | ||
| 2013-05-02T11:51 | 6801 | 439 | -14.6 | -15.2 | ||
| 2013-05-02T11:51 | 6836 | 437 | -14.0 | -15.1 | ||
| 2013-05-02T11:51 | 6916 | 432 | -14.2 | -16.2 | ||
| 2013-05-02T11:52 | 7003 | 427 | -14.6 | -17.3 | ||
| 2013-05-02T11:52 | 7103 | 422 | 269 | 25 | ||
| 2013-05-02T11:52 | 7156 | 419 | -15.5 | -20.9 | ||
| 2013-05-02T11:52 | 7193 | 417 | -15.7 | -22.1 | ||
| 2013-05-02T11:52 | 7223 | 415 | -15.8 | -26.6 | ||
| 2013-05-02T11:53 | 7366 | 407 | -16.9 | -30.4 | ||
| 2013-05-02T11:53 | 7459 | 402 | 274 | 24 | ||
| 2013-05-02T11:54 | 7765 | 386 | -20.5 | -37.2 | ||
| 2013-05-02T11:54 | 7805 | 384 | 280 | 23 | ||
| 2013-05-02T11:54 | 7900 | 379 | -20.8 | -34.6 | ||
| 2013-05-02T11:55 | 8143 | 367 | -22.2 | -38.2 | ||
| 2013-05-02T11:55 | 8153 | 366 | 287 | 23 | ||
| 2013-05-02T11:56 | 8340 | 357 | -23.7 | -39.9 | ||
| 2013-05-02T11:56 | 8433 | 352 | -23.3 | -46.5 | ||
| 2013-05-02T11:56 | 8500 | 349 | 285 | 23 | ||
| 2013-05-02T11:57 | 8803 | 335 | -26.2 | -45.8 | ||
| 2013-05-02T11:57 | 8848 | 333 | 287 | 26 | ||
| 2013-05-02T11:58 | 9133 | 320 | -28.9 | -44.4 | ||
| 2013-05-02T11:58 | 9185 | 318 | 282 | 28 | ||
| 2013-05-02T11:59 | 9467 | 305 | -31.7 | -43.5 | ||
| 2013-05-02T11:59 | 9532 | 302 | 285 | 30 | ||
| 2013-05-02T12:00 | 9896 | 287 | 285 | 32 | ||
| 2013-05-02T12:00 | 10024 | 282 | -36.0 | -54.6 | ||
| 2013-05-02T12:01 | 10259 | 272 | 281 | 36 | ||
| 2013-05-02T12:01 | 10432 | 266 | -38.7 | -51.7 | ||
| 2013-05-02T12:02 | 10581 | 260 | -40.0 | -50.4 | ||
| 2013-05-02T12:02 | 10628 | 258 | 280 | 38 | ||
| 2013-05-02T12:03 | 11006 | 244 | 280 | 39 | ||
| 2013-05-02T12:04 | 11360 | 232 | 276 | 40 | ||
| 2013-05-02T12:04 | 11371 | 231 | -46.4 | |||
| 2013-05-02T12:05 | 11688 | 220 | -48.3 | |||
| 2013-05-02T12:05 | 11736 | 219 | 279 | 44 | ||
| 2013-05-02T12:06 | 12114 | 206 | 278 | 45 | ||
| 2013-05-02T12:07 | 12456 | 196 | 274 | 45 | ||
| 2013-05-02T12:08 | 12799 | 185 | 272 | 46 | ||
| 2013-05-02T12:09 | 13160 | 175 | 270 | 48 | ||
| 2013-05-02T12:10 | 13471 | 166 | -63.9 | |||
| 2013-05-02T12:10 | 13519 | 165 | 267 | 48 | ||
| 2013-05-02T12:11 | 13898 | 155 | 270 | 47 | ||
| 2013-05-02T12:12 | 14219 | 147 | -70.1 | |||
| 2013-05-02T12:12 | 14268 | 146 | 274 | 45 | ||
| 2013-05-02T12:12 | 14345 | 144 | -69.5 | |||
| 2013-05-02T12:12 | 14421 | 142 | -68.6 | |||
| 2013-05-02T12:13 | 14597 | 138 | -65.0 | |||
| 2013-05-02T12:13 | 14664 | 137 | 287 | 38 | ||
| 2013-05-02T12:14 | 15058 | 128 | 294 | 31 | ||
| 2013-05-02T12:15 | 15500 | 119 | 289 | 25 | ||
| 2013-05-02T12:16 | 15741 | 114 | -70.5 | |||
| 2013-05-02T12:16 | 15969 | 110 | 282 | 21 | ||
| 2013-05-02T12:16 | 16033 | 109 | -71.2 | |||
| 2013-05-02T12:17 | 16407 | 102 | 273 | 20 | ||
| 2013-05-02T12:18 | 16801 | 95 | 279 | 24 | ||
| 2013-05-02T12:19 | 17092 | 91 | -78.4 | |||
| 2013-05-02T12:19 | 17226 | 88 | 301 | 26 | ||
| 2013-05-02T12:20 | 17416 | 86 | -77.8 | |||
| 2013-05-02T12:20 | 17600 | 83 | 314 | 19 | ||
| 2013-05-02T12:20 | 17712 | 81 | -77.0 | |||
| 2013-05-02T12:21 | 17857 | 79 | -73.1 | |||
| 2013-05-02T12:21 | 18052 | 77 | 285 | 8 | ||
| 2013-05-02T12:22 | 18363 | 73 | -75.8 | |||
| 2013-05-02T12:22 | 18451 | 72 | 283 | 13 | ||
| 2013-05-02T12:23 | 18832 | 67 | 302 | 8 | ||
| 2013-05-02T12:23 | 18929 | 66 | -70.6 | |||
| 2013-05-02T12:24 | 19224 | 63 | 317 | 5 | ||
| 2013-05-02T12:24 | 19330 | 62 | -70.2 | |||
| 2013-05-02T12:25 | 19447 | 60 | -69.5 | |||
| 2013-05-02T12:25 | 19608 | 59 | 185 | 1 | ||
| 2013-05-02T12:25 | 19618 | 59 | -68.2 | |||
| 2013-05-02T12:25 | 19763 | 57 | -67.3 | |||
| 2013-05-02T12:26 | 19912 | 56 | -66.9 | |||
| 2013-05-02T12:26 | 19988 | 55 | 266 | 4 | ||
| 2013-05-02T12:26 | 20055 | 55 | -63.1 | |||
| 2013-05-02T12:27 | 20286 | 53 | -61.0 | |||
| 2013-05-02T12:27 | 20357 | 52 | 37 | 2 | ||
| 2013-05-02T12:28 | 20739 | 49 | 186 | 7 | ||
| 2013-05-02T12:29 | 21117 | 46 | -61.7 | |||
| 2013-05-02T12:29 | 21130 | 46 | 232 | 5 | ||
| 2013-05-02T12:30 | 21491 | 43 | 76 | 3 | ||
| 2013-05-02T12:31 | 21875 | 41 | 166 | 3 | ||
| 2013-05-02T12:31 | 21952 | 40 | -61.4 | |||
| 2013-05-02T12:32 | 22253 | 38 | 243 | 6 | ||
| 2013-05-02T12:32 | 22418 | 37 | -59.9 | |||
| 2013-05-02T12:33 | 22623 | 36 | 257 | 6 | ||
| 2013-05-02T12:33 | 22801 | 35 | -55.9 | |||
| 2013-05-02T12:34 | 23004 | 34 | 335 | 5 | ||
| 2013-05-02T12:35 | 23390 | 32 | 348 | 6 | ||
| 2013-05-02T12:36 | 23759 | 30 | 38 | 8 | ||
| 2013-05-02T12:36 | 23865 | 30 | -55.0 | |||
| 2013-05-02T12:37 | 24129 | 29 | 73 | 5 | ||
| 2013-05-02T12:38 | 24499 | 27 | 62 | 7 | ||
| 2013-05-02T12:39 | 24892 | 25 | 75 | 7 | ||
| 2013-05-02T12:40 | 25232 | 24 | -53.1 | |||
| 2013-05-02T12:40 | 25286 | 24 | 89 | 8 | ||
| 2013-05-02T12:41 | 25677 | 22 | -52.4 | 91 | 5 | |
| 2013-05-02T12:42 | 26096 | 21 | 69 | 3 | ||
| 2013-05-02T12:42 | 26221 | 21 | -49.9 | |||
| 2013-05-02T12:43 | 26480 | 20 | 112 | 5 | ||
| 2013-05-02T12:44 | 26889 | 19 | 59 | 3 | ||
| 2013-05-02T12:45 | 27177 | 18 | -49.7 | |||
| 2013-05-02T12:45 | 27288 | 18 | 146 | 6 | ||
| 2013-05-02T12:46 | 27714 | 16 | 118 | 5 | ||
| 2013-05-02T12:46 | 27754 | 16 | -48.2 | |||
| 2013-05-02T12:47 | 28128 | 15 | 85 | 4 | ||
| 2013-05-02T12:48 | 28525 | 15 | 172 | 2 | ||
| 2013-05-02T12:49 | 28899 | 14 | -48.0 | |||
| 2013-05-02T12:49 | 28947 | 14 | 66 | 5 | ||
| 2013-05-02T12:50 | 29399 | 13 | -47.5 | 128 | 5 | |
| 2013-05-02T12:50 | 29451 | 13 | -46.0 | |||
| 2013-05-02T23:30 | 8 | 1013 | 22.2 | 16.2 | 60 | 2 |
| 2013-05-02T23:30 | 38 | 1010 | 21.0 | 15.8 | ||
| 2013-05-02T23:31 | 176 | 994 | 19.9 | 14.5 | ||
| 2013-05-02T23:31 | 305 | 979 | 71 | 5 | ||
| 2013-05-02T23:32 | 676 | 937 | 74 | 6 | ||
| 2013-05-02T23:32 | 701 | 935 | 15.1 | 13.0 | ||
| 2013-05-02T23:32 | 839 | 920 | 13.8 | 12.2 | ||
| 2013-05-02T23:32 | 845 | 919 | 13.8 | 12.2 | ||
| 2013-05-02T23:33 | 965 | 906 | 12.7 | 11.1 | ||
| 2013-05-02T23:33 | 1010 | 901 | 12.9 | 9.7 | ||
| 2013-05-02T23:33 | 1028 | 899 | 75 | 8 | ||
| 2013-05-02T23:33 | 1149 | 886 | 12.1 | 8.6 | ||
| 2013-05-02T23:33 | 1165 | 885 | 12.3 | 7.0 | ||
| 2013-05-02T23:34 | 1283 | 872 | 11.3 | 5.8 | ||
| 2013-05-02T23:34 | 1300 | 871 | 11.2 | 5.5 | ||
| 2013-05-02T23:34 | 1337 | 867 | 11.3 | 2.6 | ||
| 2013-05-02T23:34 | 1353 | 865 | 86 | 4 | ||
| 2013-05-02T23:34 | 1364 | 864 | 11.7 | -0.1 | ||
| 2013-05-02T23:34 | 1392 | 861 | 12.4 | -6.1 | ||
| 2013-05-02T23:34 | 1449 | 855 | 13.2 | -11.3 | ||
| 2013-05-02T23:35 | 1551 | 845 | 12.9 | -15.9 | ||
| 2013-05-02T23:35 | 1598 | 840 | 14.0 | -27.6 | ||
| 2013-05-02T23:35 | 1678 | 832 | 13.7 | -18.7 | ||
| 2013-05-02T23:35 | 1695 | 830 | 271 | 2 | ||
| 2013-05-02T23:35 | 1816 | 819 | 13.0 | -28.3 | ||
| 2013-05-02T23:35 | 1861 | 814 | 12.7 | -16.0 | ||
| 2013-05-02T23:36 | 1873 | 813 | 12.6 | -22.4 | ||
| 2013-05-02T23:36 | 1889 | 811 | 12.4 | -18.4 | ||
| 2013-05-02T23:36 | 1918 | 809 | 12.3 | -19.7 | ||
| 2013-05-02T23:36 | 1982 | 802 | 12.2 | -0.3 | ||
| 2013-05-02T23:36 | 2005 | 800 | 12.2 | 6.5 | ||
| 2013-05-02T23:36 | 2041 | 797 | 244 | 5 | ||
| 2013-05-02T23:36 | 2082 | 793 | 12.3 | 5.0 | ||
| 2013-05-02T23:37 | 2385 | 765 | 255 | 5 | ||
| 2013-05-02T23:37 | 2447 | 759 | 8.8 | 6.1 | ||
| 2013-05-02T23:38 | 2615 | 744 | 7.5 | 6.3 | ||
| 2013-05-02T23:38 | 2724 | 734 | 259 | 7 | ||
| 2013-05-02T23:38 | 2736 | 733 | 7.3 | 7.3 | ||
| 2013-05-02T23:39 | 2992 | 711 | 7.1 | 6.2 | ||
| 2013-05-02T23:39 | 3067 | 704 | 263 | 10 | ||
| 2013-05-02T23:39 | 3225 | 691 | 6.5 | 5.3 | ||
| 2013-05-02T23:40 | 3409 | 675 | 269 | 13 | ||
| 2013-05-02T23:41 | 3755 | 647 | 271 | 13 | ||
| 2013-05-02T23:41 | 3801 | 644 | 3.3 | 0.7 | ||
| 2013-05-02T23:42 | 4114 | 619 | 279 | 14 | ||
| 2013-05-02T23:42 | 4223 | 611 | 0.4 | -1.8 | ||
| 2013-05-02T23:43 | 4376 | 599 | -0.3 | -2.4 | ||
| 2013-05-02T23:43 | 4443 | 594 | -0.8 | -3.7 | ||
| 2013-05-02T23:43 | 4479 | 592 | 273 | 14 | ||
| 2013-05-02T23:43 | 4491 | 591 | -1.1 | -3.9 | ||
| 2013-05-02T23:43 | 4552 | 586 | -1.4 | -3.9 | ||
| 2013-05-02T23:44 | 4801 | 568 | -2.7 | -4.3 | ||
| 2013-05-02T23:44 | 4843 | 565 | 269 | 13 | ||
| 2013-05-02T23:44 | 4867 | 564 | -2.2 | -5.3 | ||
| 2013-05-02T23:44 | 5017 | 553 | -3.3 | -7.1 | ||
| 2013-05-02T23:45 | 5209 | 540 | 265 | 15 | ||
| 2013-05-02T23:45 | 5284 | 535 | -5.0 | -7.4 | ||
| 2013-05-02T23:46 | 5512 | 519 | -6.4 | -7.5 | ||
| 2013-05-02T23:46 | 5572 | 515 | 250 | 18 | ||
| 2013-05-02T23:46 | 5703 | 507 | -7.6 | -8.5 | ||
| 2013-05-02T23:47 | 5869 | 496 | -8.3 | -11.8 | ||
| 2013-05-02T23:47 | 5929 | 492 | 248 | 21 | ||
| 2013-05-02T23:48 | 6148 | 479 | -10.6 | -13.7 | ||
| 2013-05-02T23:48 | 6295 | 469 | 248 | 19 | ||
| 2013-05-02T23:49 | 6612 | 450 | -14.6 | -15.2 | ||
| 2013-05-02T23:49 | 6661 | 447 | 252 | 16 | ||
| 2013-05-02T23:49 | 6685 | 446 | -14.2 | -15.9 | ||
| 2013-05-02T23:49 | 6727 | 444 | -14.4 | -17.7 | ||
| 2013-05-02T23:49 | 6756 | 442 | -14.4 | -20.5 | ||
| 2013-05-02T23:49 | 6805 | 439 | -14.0 | -25.0 | ||
| 2013-05-02T23:50 | 6860 | 436 | -14.0 | -28.6 | ||
| 2013-05-02T23:50 | 6999 | 428 | -14.8 | -29.3 | ||
| 2013-05-02T23:50 | 7022 | 427 | 258 | 20 | ||
| 2013-05-02T23:50 | 7123 | 421 | -15.5 | -29.2 | ||
| 2013-05-02T23:51 | 7214 | 416 | -15.8 | -29.4 | ||
| 2013-05-02T23:51 | 7255 | 414 | -15.1 | -33.1 | ||
| 2013-05-02T23:51 | 7382 | 407 | 252 | 21 | ||
| 2013-05-02T23:51 | 7395 | 406 | -15.9 | -37.3 | ||
| 2013-05-02T23:52 | 7742 | 388 | 255 | 19 | ||
| 2013-05-02T23:53 | 8079 | 370 | -21.3 | -38.8 | ||
| 2013-05-02T23:53 | 8117 | 369 | 258 | 23 | ||
| 2013-05-02T23:53 | 8220 | 363 | -22.1 | -33.7 | ||
| 2013-05-02T23:54 | 8499 | 350 | 264 | 21 | ||
| 2013-05-02T23:54 | 8618 | 344 | -25.6 | -35.8 | ||
| 2013-05-02T23:55 | 8688 | 341 | -25.8 | -35.0 | ||
| 2013-05-02T23:55 | 8806 | 335 | -26.6 | -39.7 | ||
| 2013-05-02T23:55 | 8884 | 332 | 262 | 21 | ||
| 2013-05-02T23:55 | 9070 | 323 | -28.8 | -42.0 | ||
| 2013-05-02T23:56 | 9274 | 314 | 264 | 22 | ||
| 2013-05-02T23:56 | 9468 | 306 | -31.8 | -41.2 | ||
| 2013-05-02T23:57 | 9648 | 298 | -32.7 | -38.2 | ||
| 2013-05-02T23:57 | 9676 | 297 | 268 | 27 | ||
| 2013-05-02T23:57 | 9856 | 289 | -34.1 | -43.3 | ||
| 2013-05-02T23:58 | 10101 | 279 | 271 | 28 | ||
| 2013-05-02T23:58 | 10292 | 272 | -37.6 | -44.0 | ||
| 2013-05-02T23:59 | 10526 | 263 | 267 | 28 | ||
| 2013-05-02T23:59 | 10610 | 259 | -40.0 | -48.5 | ||
| 2013-05-03T00:00 | 10959 | 246 | 267 | 30 | ||
| 2013-05-03T00:01 | 11391 | 231 | 264 | 32 | ||
| 2013-05-03T00:02 | 11794 | 217 | 264 | 34 | ||
| 2013-05-03T00:03 | 12191 | 204 | 262 | 36 | ||
| 2013-05-03T00:03 | 12337 | 200 | -54.5 | |||
| 2013-05-03T00:04 | 12607 | 191 | 262 | 38 | ||
| 2013-05-03T00:05 | 12994 | 180 | 267 | 39 | ||
| 2013-05-03T00:06 | 13382 | 169 | 269 | 36 | ||
| 2013-05-03T00:07 | 13800 | 158 | 267 | 34 | ||
| 2013-05-03T00:08 | 14218 | 147 | 269 | 35 | ||
| 2013-05-03T00:08 | 14267 | 146 | -69.9 | |||
| 2013-05-03T00:09 | 14572 | 139 | -70.1 | |||
| 2013-05-03T00:09 | 14628 | 138 | 283 | 34 | ||
| 2013-05-03T00:09 | 14697 | 136 | -69.7 | |||
| 2013-05-03T00:09 | 14803 | 134 | -69.3 | |||
| 2013-05-03T00:10 | 14994 | 129 | -69.8 | |||
| 2013-05-03T00:10 | 15087 | 127 | 296 | 31 | ||
| 2013-05-03T00:11 | 15369 | 121 | -70.0 | |||
| 2013-05-03T00:11 | 15548 | 118 | 281 | 22 | ||
| 2013-05-03T00:12 | 15841 | 112 | -72.0 | |||
| 2013-05-03T00:12 | 15936 | 110 | 280 | 24 | ||
| 2013-05-03T00:13 | 16333 | 103 | -72.3 | |||
| 2013-05-03T00:13 | 16431 | 101 | 285 | 22 | ||
| 2013-05-03T00:13 | 16636 | 98 | -74.4 | |||
| 2013-05-03T00:14 | 16965 | 93 | 292 | 18 | ||
| 2013-05-03T00:15 | 17311 | 87 | -76.9 | |||
| 2013-05-03T00:15 | 17438 | 85 | 278 | 16 | ||
| 2013-05-03T00:15 | 17590 | 83 | -75.3 | |||
| 2013-05-03T00:16 | 17898 | 79 | 291 | 14 | ||
| 2013-05-03T00:16 | 18001 | 77 | -76.2 | |||
| 2013-05-03T00:17 | 18330 | 73 | -76.6 | 280 | 15 | |
| 2013-05-03T00:18 | 18773 | 68 | 309 | 16 | ||
| 2013-05-03T00:18 | 18807 | 67 | -76.0 | |||
| 2013-05-03T00:19 | 19072 | 64 | -74.5 | |||
| 2013-05-03T00:19 | 19164 | 63 | -72.5 | |||
| 2013-05-03T00:19 | 19220 | 63 | 326 | 9 | ||
| 2013-05-03T00:20 | 19411 | 61 | -70.8 | |||
| 2013-05-03T00:20 | 19510 | 60 | -69.9 | |||
| 2013-05-03T00:20 | 19520 | 60 | 292 | 4 | ||
| 2013-05-03T00:20 | 19540 | 59 | -70.0 | |||
| 2013-05-03T11:30 | 8 | 1014 | 19.2 | 18.0 | 130 | 4 |
| 2013-05-03T11:30 | 20 | 1013 | 18.6 | 17.1 | ||
| 2013-05-03T11:31 | 225 | 989 | 17.8 | 16.8 | ||
| 2013-05-03T11:31 | 305 | 980 | 126 | 4 | ||
| 2013-05-03T11:31 | 434 | 965 | 16.8 | 16.3 | ||
| 2013-05-03T11:32 | 549 | 952 | 16.3 | 16.0 | ||
| 2013-05-03T11:32 | 643 | 942 | 118 | 4 | ||
| 2013-05-03T11:32 | 763 | 929 | 15.1 | 13.8 | ||
| 2013-05-03T11:33 | 965 | 907 | 130 | 3 | ||
| 2013-05-03T11:33 | 1056 | 897 | 13.6 | 13.6 | ||
| 2013-05-03T11:34 | 1299 | 872 | 227 | 2 | ||
| 2013-05-03T11:35 | 1550 | 846 | 12.2 | 12.2 | ||
| 2013-05-03T11:35 | 1655 | 836 | 204 | 2 | ||
| 2013-05-03T11:35 | 1811 | 820 | 12.5 | 12.5 | ||
| 2013-05-03T11:36 | 1978 | 804 | 243 | 4 | ||
| 2013-05-03T11:36 | 2124 | 790 | 11.2 | 11.2 | ||
| 2013-05-03T11:37 | 2157 | 787 | 10.9 | 10.9 | ||
| 2013-05-03T11:37 | 2239 | 779 | 10.7 | 10.7 | ||
| 2013-05-03T11:37 | 2305 | 773 | 267 | 7 | ||
| 2013-05-03T11:38 | 2554 | 751 | 9.4 | 9.4 | ||
| 2013-05-03T11:38 | 2611 | 745 | 8.9 | 8.9 | ||
| 2013-05-03T11:38 | 2617 | 745 | 266 | 7 | ||
| 2013-05-03T11:39 | 2870 | 722 | 7.7 | 7.7 | ||
| 2013-05-03T11:39 | 2929 | 717 | 279 | 6 | ||
| 2013-05-03T11:39 | 3074 | 705 | 6.5 | 6.5 | ||
| 2013-05-03T11:40 | 3144 | 699 | 5.9 | 5.9 | ||
| 2013-05-03T11:40 | 3254 | 690 | 297 | 5 | ||
| 2013-05-03T11:40 | 3329 | 683 | 5.2 | 5.2 | ||
| 2013-05-03T11:41 | 3527 | 667 | 3.8 | 3.4 | ||
| 2013-05-03T11:41 | 3569 | 663 | 318 | 7 | ||
| 2013-05-03T11:42 | 3865 | 640 | 277 | 6 | ||
| 2013-05-03T11:43 | 4042 | 626 | 1.7 | 1.7 | ||
| 2013-05-03T11:43 | 4168 | 616 | 261 | 9 | ||
| 2013-05-03T11:44 | 4481 | 593 | 257 | 11 | ||
| 2013-05-03T11:45 | 4808 | 569 | 252 | 9 | ||
| 2013-05-03T11:45 | 4841 | 566 | -2.4 | -2.8 | ||
| 2013-05-03T11:46 | 5122 | 547 | 248 | 11 | ||
| 2013-05-03T11:47 | 5375 | 529 | -5.9 | -6.4 | ||
| 2013-05-03T11:47 | 5431 | 526 | 248 | 10 | ||
| 2013-05-03T11:48 | 5719 | 507 | 245 | 9 | ||
| 2013-05-03T11:48 | 5865 | 497 | -8.5 | -9.0 | ||
| 2013-05-03T11:49 | 6019 | 487 | 249 | 11 | ||
| 2013-05-03T11:49 | 6068 | 484 | -9.7 | -10.2 | ||
| 2013-05-03T11:49 | 6153 | 479 | -10.5 | -11.4 | ||
| 2013-05-03T11:50 | 6168 | 478 | -10.7 | -13.2 | ||
| 2013-05-03T11:50 | 6206 | 476 | -11.0 | -14.6 | ||
| 2013-05-03T11:50 | 6226 | 475 | -11.2 | -12.5 | ||
| 2013-05-03T11:50 | 6279 | 471 | -10.9 | -11.4 | ||
| 2013-05-03T11:50 | 6308 | 469 | 260 | 13 | ||
| 2013-05-03T11:50 | 6312 | 469 | -11.2 | -12.5 | ||
| 2013-05-03T11:50 | 6350 | 467 | -11.5 | -14.7 | ||
| 2013-05-03T11:50 | 6365 | 466 | -11.6 | -15.1 | ||
| 2013-05-03T11:50 | 6399 | 464 | -11.9 | -15.8 | ||
| 2013-05-03T11:50 | 6417 | 463 | -12.1 | -15.6 | ||
| 2013-05-03T11:51 | 6461 | 460 | -12.4 | -16.9 | ||
| 2013-05-03T11:51 | 6502 | 458 | -12.8 | -16.8 | ||
| 2013-05-03T11:51 | 6517 | 457 | -13.0 | -17.5 | ||
| 2013-05-03T11:51 | 6567 | 454 | -13.4 | -18.4 | ||
| 2013-05-03T11:51 | 6586 | 453 | -13.6 | -19.7 | ||
| 2013-05-03T11:51 | 6589 | 453 | 259 | 15 | ||
| 2013-05-03T11:51 | 6604 | 452 | -13.7 | -18.9 | ||
| 2013-05-03T11:51 | 6618 | 451 | -13.9 | -21.4 | ||
| 2013-05-03T11:51 | 6634 | 450 | -14.0 | -20.3 | ||
| 2013-05-03T11:51 | 6657 | 449 | -14.2 | -20.9 | ||
| 2013-05-03T11:51 | 6670 | 448 | -14.3 | -21.8 | ||
| 2013-05-03T11:51 | 6679 | 447 | -14.3 | -21.4 | ||
| 2013-05-03T11:51 | 6695 | 446 | -14.3 | -21.6 | ||
| 2013-05-03T11:52 | 6732 | 444 | -14.5 | -22.9 | ||
| 2013-05-03T11:52 | 6747 | 443 | -14.6 | -21.9 | ||
| 2013-05-03T11:52 | 6764 | 442 | -14.6 | -23.0 | ||
| 2013-05-03T11:52 | 6790 | 441 | -14.7 | -22.6 | ||
| 2013-05-03T11:52 | 6826 | 439 | -15.0 | -24.3 | ||
| 2013-05-03T11:52 | 6854 | 437 | 260 | 18 | ||
| 2013-05-03T11:52 | 6895 | 435 | -15.1 | -22.8 | ||
| 2013-05-03T11:52 | 6900 | 434 | -15.1 | -21.7 | ||
| 2013-05-03T11:52 | 6919 | 433 | -15.1 | -23.0 | ||
| 2013-05-03T11:52 | 6953 | 431 | -15.1 | -23.0 | ||
| 2013-05-03T11:52 | 6991 | 429 | -15.2 | -22.9 | ||
| 2013-05-03T11:53 | 7030 | 427 | -15.3 | -20.9 | ||
| 2013-05-03T11:53 | 7069 | 425 | -15.3 | -20.0 | ||
| 2013-05-03T11:53 | 7140 | 421 | 265 | 17 | ||
| 2013-05-03T11:53 | 7184 | 418 | -15.8 | -19.7 | ||
| 2013-05-03T11:53 | 7209 | 417 | -16.0 | -21.8 | ||
| 2013-05-03T11:54 | 7336 | 410 | -17.1 | -24.0 | ||
| 2013-05-03T11:54 | 7366 | 408 | -17.3 | -23.2 | ||
| 2013-05-03T11:54 | 7386 | 407 | -17.4 | -22.8 | ||
| 2013-05-03T11:54 | 7432 | 405 | 260 | 20 | ||
| 2013-05-03T11:54 | 7447 | 404 | -18.0 | -27.1 | ||
| 2013-05-03T11:54 | 7502 | 401 | -18.5 | -31.2 | ||
| 2013-05-03T11:54 | 7523 | 400 | -18.7 | -31.3 | ||
| 2013-05-03T11:54 | 7541 | 399 | -18.9 | -34.9 | ||
| 2013-05-03T11:54 | 7564 | 398 | -19.0 | -34.6 | ||
| 2013-05-03T11:55 | 7647 | 393 | -19.5 | -36.3 | ||
| 2013-05-03T11:55 | 7706 | 390 | -19.5 | -30.8 | ||
| 2013-05-03T11:55 | 7742 | 388 | 255 | 20 | ||
| 2013-05-03T11:55 | 7809 | 385 | -20.5 | -32.0 | ||
| 2013-05-03T11:56 | 7908 | 380 | -21.0 | -34.0 | ||
| 2013-05-03T11:56 | 7947 | 378 | -21.2 | -33.9 | ||
| 2013-05-03T11:56 | 8045 | 373 | 259 | 21 | ||
| 2013-05-03T11:57 | 8305 | 360 | -23.4 | -36.2 | ||
| 2013-05-03T11:57 | 8352 | 357 | 263 | 22 | ||
| 2013-05-03T11:57 | 8385 | 356 | -23.8 | -36.9 | ||
| 2013-05-03T11:57 | 8449 | 353 | -24.1 | -34.7 | ||
| 2013-05-03T11:57 | 8492 | 351 | -24.3 | -31.4 | ||
| 2013-05-03T11:58 | 8549 | 348 | -24.8 | -34.8 | ||
| 2013-05-03T11:58 | 8595 | 346 | -25.0 | -32.0 | ||
| 2013-05-03T11:58 | 8641 | 343 | 264 | 23 | ||
| 2013-05-03T11:58 | 8696 | 341 | -25.6 | -31.4 | ||
| 2013-05-03T11:59 | 8913 | 331 | 262 | 24 | ||
| 2013-05-03T11:59 | 8931 | 330 | -27.2 | -27.9 | ||
| 2013-05-03T11:59 | 8995 | 327 | -27.8 | -28.7 | ||
| 2013-05-03T11:59 | 9026 | 326 | -27.9 | -29.8 | ||
| 2013-05-03T12:00 | 9134 | 321 | -28.5 | -30.4 | ||
| 2013-05-03T12:00 | 9168 | 319 | 264 | 26 | ||
| 2013-05-03T12:01 | 9415 | 308 | 264 | 27 | ||
| 2013-05-03T12:01 | 9430 | 308 | -30.7 | -33.2 | ||
| 2013-05-03T12:02 | 9664 | 298 | 267 | 28 | ||
| 2013-05-03T12:02 | 9680 | 297 | -32.8 | -34.3 | ||
| 2013-05-03T12:03 | 9920 | 287 | -34.3 | -36.8 | 264 | 27 |
| 2013-05-03T12:04 | 10127 | 279 | -35.7 | -39.6 | ||
| 2013-05-03T12:04 | 10177 | 277 | 267 | 27 | ||
| 2013-05-03T12:05 | 10437 | 266 | 266 | 28 | ||
| 2013-05-03T12:06 | 10670 | 258 | -40.0 | -44.8 | ||
| 2013-05-03T12:06 | 10675 | 257 | -40.0 | -45.0 | ||
| 2013-05-03T12:06 | 10710 | 256 | 260 | 27 | ||
| 2013-05-03T12:07 | 10963 | 247 | 259 | 30 | ||
| 2013-05-03T12:08 | 11208 | 238 | 259 | 32 | ||
| 2013-05-03T12:09 | 11445 | 230 | 257 | 32 | ||
| 2013-05-03T12:10 | 11680 | 222 | 254 | 31 | ||
| 2013-05-03T12:11 | 11894 | 214 | -49.8 | |||
| 2013-05-03T12:11 | 11931 | 213 | 249 | 31 | ||
| 2013-05-03T12:12 | 12173 | 205 | 250 | 30 | ||
| 2013-05-03T12:13 | 12419 | 198 | 252 | 30 | ||
| 2013-05-03T12:14 | 12669 | 190 | 255 | 31 | ||
| 2013-05-03T12:15 | 12919 | 183 | 255 | 31 | ||
| 2013-05-03T12:16 | 13131 | 177 | -60.7 | |||
| 2013-05-03T12:16 | 13173 | 175 | 254 | 32 | ||
| 2013-05-03T12:17 | 13414 | 169 | 256 | 32 | ||
| 2013-05-03T12:18 | 13656 | 162 | 257 | 32 | ||
| 2013-05-03T12:18 | 13766 | 159 | -64.5 | |||
| 2013-05-03T12:19 | 13902 | 156 | 262 | 32 | ||
| 2013-05-03T12:20 | 14064 | 152 | -65.5 | |||
| 2013-05-03T12:20 | 14165 | 149 | 267 | 34 | ||
| 2013-05-03T12:21 | 14408 | 143 | -68.0 | |||
| 2013-05-03T12:21 | 14421 | 143 | 270 | 34 | ||
| 2013-05-03T12:22 | 14661 | 137 | 274 | 33 | ||
| 2013-05-03T12:22 | 14666 | 137 | -67.3 | |||
| 2013-05-03T12:23 | 14907 | 132 | 271 | 31 | ||
| 2013-05-03T12:24 | 15161 | 126 | 272 | 29 | ||
| 2013-05-03T12:24 | 15260 | 124 | -71.0 | |||
| 2013-05-03T12:25 | 15414 | 121 | 268 | 28 | ||
| 2013-05-03T12:26 | 15537 | 119 | -71.7 | |||
| 2013-05-03T12:26 | 15653 | 116 | 269 | 27 | ||
| 2013-05-03T12:26 | 15684 | 116 | -69.8 | |||
| 2013-05-03T12:27 | 15920 | 111 | 282 | 25 | ||
| 2013-05-03T12:28 | 16152 | 107 | -71.5 | |||
| 2013-05-03T12:28 | 16191 | 106 | 280 | 22 | ||
| 2013-05-03T12:29 | 16479 | 101 | 267 | 22 | ||
| 2013-05-03T12:29 | 16572 | 100 | -74.8 | |||
| 2013-05-03T12:30 | 16714 | 97 | 277 | 23 | ||
| 2013-05-03T12:31 | 16938 | 93 | 285 | 20 | ||
| 2013-05-03T12:31 | 16988 | 93 | -76.2 | |||
| 2013-05-03T12:32 | 17197 | 89 | 304 | 18 | ||
| 2013-05-03T12:33 | 17426 | 86 | 291 | 17 | ||
| 2013-05-03T12:34 | 17636 | 83 | 287 | 21 | ||
| 2013-05-03T12:35 | 17789 | 81 | -79.4 | |||
| 2013-05-03T12:35 | 17839 | 80 | 302 | 23 | ||
| 2013-05-03T12:36 | 18013 | 77 | 308 | 20 | ||
| 2013-05-03T12:36 | 18020 | 77 | -77.5 | |||
| 2013-05-03T12:37 | 18178 | 75 | 303 | 15 | ||
| 2013-05-03T12:38 | 18271 | 74 | -76.6 | |||
| 2013-05-03T12:38 | 18302 | 74 | 304 | 14 | ||
| 2013-05-03T12:39 | 18373 | 73 | -73.8 | |||
| 2013-05-03T12:39 | 18430 | 72 | 318 | 11 | ||
| 2013-05-03T12:40 | 18561 | 70 | -72.4 | 343 | 8 | |
| 2013-05-03T12:41 | 18680 | 69 | 20 | 4 | ||
| 2013-05-03T12:42 | 18758 | 68 | -69.7 | |||
| 2013-05-03T12:42 | 18784 | 68 | 95 | 4 | ||
| 2013-05-03T12:44 | 18873 | 67 | 122 | 4 | ||
| 2013-05-03T12:45 | 18953 | 66 | 137 | 5 | ||
| 2013-05-03T12:45 | 18989 | 66 | 147 | 5 | ||
| 2013-05-03T12:45 | 18998 | 65 | -71.1 | |||
| 2013-05-03T23:30 | 8 | 1015 | 21.6 | 18.6 | 80 | 5 |
| 2013-05-03T23:30 | 17 | 1014 | 21.1 | 18.5 | ||
| 2013-05-03T23:31 | 287 | 983 | 19.0 | 16.8 | ||
| 2013-05-03T23:31 | 307 | 981 | 53 | 9 | ||
| 2013-05-03T23:32 | 571 | 951 | 16.6 | 16.6 | ||
| 2013-05-03T23:32 | 663 | 941 | 82 | 6 | ||
| 2013-05-03T23:33 | 961 | 908 | 79 | 4 | ||
| 2013-05-03T23:33 | 1055 | 898 | 14.9 | 14.9 | ||
| 2013-05-03T23:34 | 1215 | 882 | 14.5 | 14.5 | ||
| 2013-05-03T23:34 | 1262 | 877 | 170 | 1 | ||
| 2013-05-03T23:35 | 1571 | 845 | 226 | 2 | ||
| 2013-05-03T23:35 | 1711 | 831 | 12.3 | 12.3 | ||
| 2013-05-03T23:36 | 1896 | 813 | 257 | 9 | ||
| 2013-05-03T23:36 | 2019 | 801 | 11.8 | 11.8 | ||
| 2013-05-03T23:37 | 2248 | 780 | 256 | 9 | ||
| 2013-05-03T23:37 | 2308 | 774 | 10.6 | 10.6 | ||
| 2013-05-03T23:38 | 2483 | 758 | 9.2 | 8.1 | ||
| 2013-05-03T23:38 | 2599 | 748 | 285 | 6 | ||
| 2013-05-03T23:38 | 2655 | 743 | 8.2 | 7.1 | ||
| 2013-05-03T23:39 | 2942 | 717 | 7.0 | 6.3 | ||
| 2013-05-03T23:39 | 2948 | 717 | 292 | 5 | ||
| 2013-05-03T23:40 | 3141 | 700 | 5.8 | 5.1 | ||
| 2013-05-03T23:40 | 3258 | 690 | 5.1 | 3.1 | ||
| 2013-05-03T23:40 | 3285 | 688 | 298 | 8 | ||
| 2013-05-03T23:41 | 3629 | 659 | 296 | 7 | ||
| 2013-05-03T23:41 | 3673 | 656 | 2.7 | 1.8 | ||
| 2013-05-03T23:42 | 3860 | 641 | 1.6 | 1.0 | ||
| 2013-05-03T23:42 | 3954 | 633 | 300 | 8 | ||
| 2013-05-03T23:42 | 4052 | 626 | 0.4 | -0.7 | ||
| 2013-05-03T23:42 | 4088 | 623 | 0.2 | -0.8 | ||
| 2013-05-03T23:43 | 4119 | 621 | 0.1 | -0.6 | ||
| 2013-05-03T23:43 | 4130 | 620 | 0.1 | -0.6 | ||
| 2013-05-03T23:43 | 4182 | 616 | -0.1 | -0.8 | ||
| 2013-05-03T23:43 | 4217 | 613 | 0.0 | -0.3 | ||
| 2013-05-03T23:43 | 4264 | 609 | 308 | 9 | ||
| 2013-05-03T23:43 | 4289 | 608 | -0.5 | -2.2 | ||
| 2013-05-03T23:43 | 4341 | 604 | -1.0 | -5.0 | ||
| 2013-05-03T23:43 | 4403 | 599 | -1.0 | -5.2 | ||
| 2013-05-03T23:44 | 4514 | 591 | -1.5 | -5.5 | ||
| 2013-05-03T23:44 | 4531 | 589 | -1.6 | -4.6 | ||
| 2013-05-03T23:44 | 4569 | 587 | -1.7 | -5.0 | ||
| 2013-05-03T23:44 | 4574 | 586 | -1.7 | -5.4 | ||
| 2013-05-03T23:44 | 4579 | 586 | 294 | 11 | ||
| 2013-05-03T23:44 | 4697 | 577 | -2.1 | -5.3 | ||
| 2013-05-03T23:45 | 4843 | 567 | -3.0 | -6.1 | ||
| 2013-05-03T23:45 | 4912 | 562 | -3.3 | -5.9 | ||
| 2013-05-03T23:45 | 4915 | 562 | 305 | 15 | ||
| 2013-05-03T23:45 | 5031 | 553 | -4.1 | -9.1 | ||
| 2013-05-03T23:46 | 5107 | 548 | -4.3 | -9.0 | ||
| 2013-05-03T23:46 | 5231 | 540 | -5.2 | -9.5 | ||
| 2013-05-03T23:46 | 5257 | 538 | 308 | 15 | ||
| 2013-05-03T23:47 | 5429 | 526 | -6.1 | -9.5 | ||
| 2013-05-03T23:47 | 5605 | 514 | 306 | 17 | ||
| 2013-05-03T23:47 | 5673 | 510 | -7.7 | -9.3 | ||
| 2013-05-03T23:47 | 5754 | 505 | -7.5 | -10.4 | ||
| 2013-05-03T23:48 | 5840 | 499 | -7.8 | -11.8 | ||
| 2013-05-03T23:48 | 5950 | 492 | 292 | 17 | ||
| 2013-05-03T23:48 | 6097 | 483 | -9.4 | -12.1 | ||
| 2013-05-03T23:49 | 6221 | 475 | -10.2 | -13.5 | ||
| 2013-05-03T23:49 | 6289 | 471 | 285 | 17 | ||
| 2013-05-03T23:49 | 6412 | 464 | -11.5 | -14.4 | ||
| 2013-05-03T23:50 | 6640 | 450 | 294 | 18 | ||
| 2013-05-03T23:50 | 6793 | 441 | -14.6 | -16.0 | ||
| 2013-05-03T23:51 | 6910 | 434 | -15.0 | -16.5 | ||
| 2013-05-03T23:51 | 6976 | 430 | 280 | 17 | ||
| 2013-05-03T23:51 | 7101 | 423 | -16.4 | -17.8 | ||
| 2013-05-03T23:52 | 7237 | 416 | -16.5 | -19.0 | ||
| 2013-05-03T23:52 | 7323 | 411 | 267 | 20 | ||
| 2013-05-03T23:52 | 7346 | 410 | -16.6 | -19.8 | ||
| 2013-05-03T23:52 | 7379 | 408 | -16.5 | -19.9 | ||
| 2013-05-03T23:52 | 7418 | 406 | -16.4 | -22.9 | ||
| 2013-05-03T23:53 | 7571 | 398 | -17.2 | -25.6 | ||
| 2013-05-03T23:53 | 7654 | 393 | 268 | 23 | ||
| 2013-05-03T23:53 | 7743 | 389 | -18.7 | -27.2 | ||
| 2013-05-03T23:54 | 7986 | 376 | 267 | 23 | ||
| 2013-05-03T23:54 | 7991 | 376 | -20.2 | -29.3 | ||
| 2013-05-03T23:55 | 8185 | 366 | -21.8 | -30.3 | ||
| 2013-05-03T23:55 | 8225 | 364 | -22.1 | -29.7 | ||
| 2013-05-03T23:55 | 8329 | 359 | 266 | 25 | ||
| 2013-05-03T23:55 | 8357 | 358 | -23.0 | -31.4 | ||
| 2013-05-03T23:55 | 8410 | 355 | -23.5 | -31.9 | ||
| 2013-05-03T23:56 | 8566 | 348 | -24.7 | -32.6 | ||
| 2013-05-03T23:56 | 8661 | 343 | 263 | 22 | ||
| 2013-05-03T23:56 | 8729 | 340 | -25.7 | -33.1 | ||
| 2013-05-03T23:57 | 8838 | 335 | -26.4 | -34.8 | ||
| 2013-05-03T23:57 | 8856 | 334 | -26.4 | -34.8 | ||
| 2013-05-03T23:57 | 9004 | 327 | 267 | 24 | ||
| 2013-05-03T23:57 | 9097 | 323 | -28.4 | -36.4 | ||
| 2013-05-03T23:58 | 9213 | 318 | -29.4 | -35.2 | ||
| 2013-05-03T23:58 | 9360 | 311 | -30.6 | -36.5 | 264 | 24 |
| 2013-05-03T23:58 | 9466 | 307 | -31.4 | -38.8 | ||
| 2013-05-03T23:59 | 9600 | 301 | -32.5 | -40.7 | ||
| 2013-05-03T23:59 | 9624 | 300 | -32.5 | -40.4 | ||
| 2013-05-03T23:59 | 9714 | 296 | 263 | 24 | ||
| 2013-05-03T23:59 | 9848 | 290 | -34.1 | -40.9 | ||
| 2013-05-04T00:00 | 10043 | 282 | -35.4 | -45.5 | ||
| 2013-05-04T00:00 | 10092 | 280 | 260 | 25 | ||
| 2013-05-04T00:01 | 10321 | 271 | -37.0 | -48.6 | ||
| 2013-05-04T00:01 | 10467 | 266 | 258 | 24 | ||
| 2013-05-04T00:01 | 10650 | 259 | -40.0 | -48.0 | ||
| 2013-05-04T00:02 | 10856 | 251 | 266 | 26 | ||
| 2013-05-04T00:03 | 11217 | 238 | 264 | 26 | ||
| 2013-05-04T00:04 | 11588 | 225 | 272 | 24 | ||
| 2013-05-04T00:05 | 11976 | 212 | 273 | 28 | ||
| 2013-05-04T00:06 | 12346 | 200 | 272 | 30 | ||
| 2013-05-04T00:06 | 12366 | 200 | -53.7 | |||
| 2013-05-04T00:07 | 12731 | 189 | 266 | 28 | ||
| 2013-05-04T00:08 | 13099 | 178 | 266 | 30 | ||
| 2013-05-04T00:09 | 13476 | 167 | 269 | 30 | ||
| 2013-05-04T00:09 | 13523 | 166 | -63.5 | |||
| 2013-05-04T00:10 | 13807 | 159 | -64.1 | |||
| 2013-05-04T00:10 | 13857 | 157 | 262 | 29 | ||
| 2013-05-04T00:10 | 14018 | 153 | -64.8 | |||
| 2013-05-04T00:11 | 14286 | 147 | 269 | 29 | ||
| 2013-05-04T00:11 | 14328 | 146 | -65.4 | |||
| 2013-05-04T00:12 | 14555 | 140 | -64.2 | |||
| 2013-05-04T00:12 | 14709 | 137 | 281 | 26 | ||
| 2013-05-04T00:12 | 14852 | 134 | -66.7 | |||
| 2013-05-04T00:13 | 15124 | 128 | 284 | 25 | ||
| 2013-05-04T00:14 | 15568 | 118 | 276 | 22 | ||
| 2013-05-04T00:14 | 15589 | 118 | -71.9 | |||
| 2013-05-04T00:15 | 15927 | 111 | -73.3 | |||
| 2013-05-04T00:15 | 16049 | 109 | 284 | 23 | ||
| 2013-05-04T00:15 | 16113 | 108 | -73.4 | |||
| 2013-05-04T00:16 | 16498 | 101 | 293 | 22 | ||
| 2013-05-04T00:16 | 16539 | 100 | -74.5 | |||
| 2013-05-04T00:17 | 16751 | 97 | -75.8 | |||
| 2013-05-04T00:17 | 16933 | 94 | 276 | 18 | ||
| 2013-05-04T00:17 | 17070 | 92 | -76.2 | |||
| 2013-05-04T00:18 | 17394 | 87 | -76.6 | |||
| 2013-05-04T00:18 | 17434 | 86 | 273 | 16 | ||
| 2013-05-04T00:18 | 17645 | 83 | -76.6 | |||
| 2013-05-04T00:19 | 17880 | 80 | 307 | 12 | ||
| 2013-05-04T00:20 | 17962 | 78 | -73.8 | |||
| 2013-05-04T11:30 | 8 | 1016 | 23.4 | 20.2 | 100 | 7 |
| 2013-05-04T11:30 | 18 | 1015 | 23.0 | 20.5 | ||
| 2013-05-04T11:31 | 322 | 980 | 98 | 8 | ||
| 2013-05-04T11:31 | 362 | 976 | 20.0 | 17.6 | ||
| 2013-05-04T11:32 | 652 | 943 | 97 | 9 | ||
| 2013-05-04T11:32 | 719 | 936 | 17.1 | 16.3 | ||
| 2013-05-04T11:33 | 990 | 907 | 88 | 8 | ||
| 2013-05-04T11:34 | 1235 | 881 | 14.6 | 14.6 | ||
| 2013-05-04T11:34 | 1333 | 871 | 14.6 | 14.6 | 78 | 4 |
| 2013-05-04T11:35 | 1687 | 835 | 356 | 1 | ||
| 2013-05-04T11:35 | 1710 | 833 | 13.1 | 13.1 | ||
| 2013-05-04T11:36 | 2040 | 801 | 250 | 5 | ||
| 2013-05-04T11:36 | 2070 | 798 | 11.9 | 11.4 | ||
| 2013-05-04T11:37 | 2401 | 767 | 235 | 7 | ||
| 2013-05-04T11:37 | 2498 | 758 | 10.2 | 9.6 | ||
| 2013-05-04T11:38 | 2758 | 735 | 221 | 7 | ||
| 2013-05-04T11:38 | 2824 | 729 | 8.6 | 8.5 | ||
| 2013-05-04T11:39 | 3138 | 702 | 236 | 8 | ||
| 2013-05-04T11:39 | 3158 | 700 | 6.4 | 6.4 | ||
| 2013-05-04T11:39 | 3295 | 689 | 5.3 | 4.4 | ||
| 2013-05-04T11:40 | 3483 | 673 | 4.9 | 2.9 | ||
| 2013-05-04T11:40 | 3512 | 671 | 255 | 10 | ||
| 2013-05-04T11:40 | 3543 | 668 | 5.2 | 2.0 | ||
| 2013-05-04T11:40 | 3657 | 659 | 5.2 | 1.9 | ||
| 2013-05-04T11:41 | 3835 | 645 | 254 | 11 | ||
| 2013-05-04T11:41 | 3840 | 644 | 4.5 | 2.2 | ||
| 2013-05-04T11:42 | 4064 | 627 | 2.8 | 1.3 | ||
| 2013-05-04T11:42 | 4075 | 626 | 2.7 | 1.2 | ||
| 2013-05-04T11:42 | 4114 | 623 | 2.4 | 1.2 | ||
| 2013-05-04T11:42 | 4120 | 622 | 2.3 | 1.1 | ||
| 2013-05-04T11:42 | 4164 | 619 | 269 | 10 | ||
| 2013-05-04T11:43 | 4350 | 605 | 0.5 | 0.2 | ||
| 2013-05-04T11:43 | 4508 | 593 | -0.3 | -0.7 | 262 | 10 |
| 2013-05-04T11:43 | 4639 | 584 | -0.5 | -2.1 | ||
| 2013-05-04T11:43 | 4667 | 581 | -0.6 | -3.0 | ||
| 2013-05-04T11:44 | 4685 | 580 | -0.6 | -3.3 | ||
| 2013-05-04T11:44 | 4862 | 567 | 264 | 10 | ||
| 2013-05-04T11:44 | 4914 | 564 | -2.4 | -3.5 | ||
| 2013-05-04T11:45 | 5211 | 543 | 268 | 9 | ||
| 2013-05-04T11:46 | 5405 | 530 | -6.5 | -7.0 | ||
| 2013-05-04T11:46 | 5464 | 526 | -6.9 | -8.4 | ||
| 2013-05-04T11:46 | 5525 | 522 | -6.4 | -8.8 | ||
| 2013-05-04T11:46 | 5548 | 520 | 267 | 11 | ||
| 2013-05-04T11:46 | 5704 | 510 | -6.8 | -9.0 | ||
| 2013-05-04T11:47 | 5760 | 506 | -6.6 | -10.8 | ||
| 2013-05-04T11:47 | 5886 | 498 | 265 | 13 | ||
| 2013-05-04T11:48 | 6118 | 483 | -9.2 | -10.3 | ||
| 2013-05-04T11:48 | 6236 | 476 | 273 | 15 | ||
| 2013-05-04T11:48 | 6280 | 473 | -9.6 | -12.7 | ||
| 2013-05-04T11:49 | 6498 | 460 | -11.1 | -14.0 | ||
| 2013-05-04T11:49 | 6563 | 456 | 272 | 14 | ||
| 2013-05-04T11:49 | 6646 | 451 | -11.8 | -16.0 | ||
| 2013-05-04T11:50 | 6757 | 445 | -12.6 | -15.8 | ||
| 2013-05-04T11:50 | 6854 | 439 | -13.2 | -16.2 | ||
| 2013-05-04T11:50 | 6901 | 437 | 269 | 13 | ||
| 2013-05-04T11:50 | 6918 | 436 | -13.4 | -18.2 | ||
| 2013-05-04T11:50 | 7036 | 429 | -13.9 | -18.5 | ||
| 2013-05-04T11:51 | 7152 | 422 | -14.1 | -22.7 | ||
| 2013-05-04T11:51 | 7260 | 416 | 275 | 17 | ||
| 2013-05-04T11:51 | 7315 | 413 | -15.4 | -21.0 | ||
| 2013-05-04T11:52 | 7526 | 402 | -16.5 | -22.3 | ||
| 2013-05-04T11:52 | 7624 | 397 | 280 | 16 | ||
| 2013-05-04T11:52 | 7716 | 392 | -17.8 | -24.3 | ||
| 2013-05-04T11:53 | 7913 | 382 | -19.4 | -26.2 | ||
| 2013-05-04T11:53 | 8001 | 377 | 274 | 19 | ||
| 2013-05-04T11:53 | 8051 | 375 | -19.8 | -30.5 | ||
| 2013-05-04T11:54 | 8222 | 366 | -21.2 | -26.9 | ||
| 2013-05-04T11:54 | 8383 | 358 | 283 | 20 | ||
| 2013-05-04T11:54 | 8497 | 353 | -22.9 | -30.9 | ||
| 2013-05-04T11:55 | 8605 | 348 | -23.8 | -33.1 | ||
| 2013-05-04T11:55 | 8749 | 341 | 283 | 23 | ||
| 2013-05-04T11:55 | 8766 | 340 | -25.1 | -31.7 | ||
| 2013-05-04T11:56 | 9015 | 328 | -26.9 | -33.2 | ||
| 2013-05-04T11:56 | 9108 | 324 | 274 | 22 | ||
| 2013-05-04T11:57 | 9483 | 308 | 271 | 23 | ||
| 2013-05-04T11:57 | 9532 | 306 | -30.9 | -36.5 | ||
| 2013-05-04T11:58 | 9715 | 298 | -32.0 | -41.4 | ||
| 2013-05-04T11:58 | 9849 | 292 | 271 | 23 | ||
| 2013-05-04T11:59 | 10214 | 277 | 270 | 24 | ||
| 2013-05-04T12:00 | 10404 | 270 | -38.1 | -45.1 | ||
| 2013-05-04T12:00 | 10585 | 263 | 265 | 25 | ||
| 2013-05-04T12:00 | 10732 | 257 | -40.0 | -50.7 | ||
| 2013-05-04T12:01 | 10931 | 250 | 263 | 28 | ||
| 2013-05-04T12:02 | 11287 | 237 | 259 | 30 | ||
| 2013-05-04T12:03 | 11668 | 224 | 258 | 30 | ||
| 2013-05-04T12:03 | 11691 | 223 | -48.6 | |||
| 2013-05-04T12:04 | 12062 | 211 | 263 | 31 | ||
| 2013-05-04T12:05 | 12462 | 198 | 268 | 28 | ||
| 2013-05-04T12:05 | 12570 | 195 | -55.8 | |||
| 2013-05-04T12:06 | 12823 | 187 | -56.4 | |||
| 2013-05-04T12:06 | 12830 | 187 | 275 | 25 | ||
| 2013-05-04T12:07 | 13023 | 181 | -56.7 | |||
| 2013-05-04T12:07 | 13193 | 176 | 282 | 26 | ||
| 2013-05-04T12:08 | 13607 | 165 | 279 | 23 | ||
| 2013-05-04T12:09 | 13975 | 155 | -64.3 | |||
| 2013-05-04T12:09 | 14030 | 154 | 280 | 22 | ||
| 2013-05-04T12:10 | 14248 | 149 | -66.0 | |||
| 2013-05-04T12:10 | 14401 | 145 | 284 | 21 | ||
| 2013-05-04T12:10 | 14502 | 143 | -66.0 | |||
| 2013-05-04T12:11 | 14833 | 135 | 287 | 22 | ||
| 2013-05-04T12:11 | 14900 | 133 | -68.7 | |||
| 2013-05-04T12:12 | 15259 | 126 | 299 | 23 | ||
| 2013-05-04T12:13 | 15547 | 120 | -72.7 | |||
| 2013-05-04T12:13 | 15716 | 116 | 296 | 22 | ||
| 2013-05-04T12:13 | 15823 | 114 | -72.9 | |||
| 2013-05-04T12:14 | 16175 | 107 | 289 | 19 | ||
| 2013-05-04T12:15 | 16310 | 105 | -77.7 | |||
| 2013-05-05T00:32 | 8 | 1017 | 23.2 | 20.0 | 100 | 7 |
| 2013-05-05T00:32 | 15 | 1016 | 23.1 | 20.4 | ||
| 2013-05-05T00:33 | 132 | 1003 | 22.2 | 18.4 | ||
| 2013-05-05T00:33 | 189 | 996 | 21.7 | 18.3 | ||
| 2013-05-05T00:33 | 284 | 986 | 89 | 9 | ||
| 2013-05-05T00:34 | 551 | 955 | 18.5 | 17.2 | ||
| 2013-05-05T00:34 | 633 | 946 | 95 | 10 | ||
| 2013-05-05T00:35 | 792 | 929 | 16.7 | 16.4 | ||
| 2013-05-05T00:35 | 942 | 913 | 102 | 10 | ||
| 2013-05-05T00:36 | 1242 | 881 | 107 | 7 | ||
| 2013-05-05T00:36 | 1296 | 876 | 14.8 | 14.8 | ||
| 2013-05-05T00:37 | 1552 | 850 | 127 | 4 | ||
| 2013-05-05T00:37 | 1656 | 839 | 13.6 | 13.4 | ||
| 2013-05-05T00:38 | 1878 | 817 | 220 | 3 | ||
| 2013-05-05T00:38 | 1938 | 812 | 12.5 | 12.2 | ||
| 2013-05-05T00:39 | 2211 | 786 | 247 | 6 | ||
| 2013-05-05T00:39 | 2319 | 776 | 10.8 | 10.2 | ||
| 2013-05-05T00:40 | 2551 | 754 | 247 | 6 | ||
| 2013-05-05T00:40 | 2644 | 746 | 9.5 | 8.1 | ||
| 2013-05-05T00:41 | 2738 | 738 | 8.8 | 6.8 | ||
| 2013-05-05T00:41 | 2865 | 726 | 8.5 | 6.5 | ||
| 2013-05-05T00:41 | 2907 | 723 | 259 | 6 | ||
| 2013-05-05T00:42 | 3283 | 690 | 262 | 4 | ||
| 2013-05-05T00:43 | 3484 | 674 | 5.0 | 3.3 | ||
| 2013-05-05T00:43 | 3644 | 661 | 262 | 4 | ||
| 2013-05-05T00:44 | 3999 | 632 | 286 | 5 | ||
| 2013-05-05T00:44 | 4022 | 631 | 2.1 | 2.0 | ||
| 2013-05-05T00:44 | 4056 | 628 | 1.6 | 1.0 | ||
| 2013-05-05T00:45 | 4176 | 619 | 1.3 | 1.2 | ||
| 2013-05-05T00:45 | 4190 | 618 | 1.1 | 1.0 | ||
| 2013-05-05T00:45 | 4207 | 616 | 1.1 | 1.0 | ||
| 2013-05-05T00:45 | 4347 | 606 | 257 | 5 | ||
| 2013-05-05T00:45 | 4417 | 600 | -0.1 | -1.2 | ||
| 2013-05-05T00:46 | 4560 | 590 | -1.0 | -3.0 | ||
| 2013-05-05T00:46 | 4705 | 579 | 255 | 7 | ||
| 2013-05-05T00:46 | 4733 | 577 | -1.9 | -3.9 | ||
| 2013-05-05T00:47 | 4899 | 565 | -3.0 | -6.8 | ||
| 2013-05-05T00:47 | 5076 | 553 | -4.0 | -7.4 | 280 | 11 |
| 2013-05-05T00:47 | 5200 | 544 | -4.3 | -7.1 | ||
| 2013-05-05T00:48 | 5272 | 539 | -4.9 | -8.3 | ||
| 2013-05-05T00:48 | 5326 | 535 | -5.3 | -8.0 | ||
| 2013-05-05T00:48 | 5344 | 534 | -5.5 | -9.2 | ||
| 2013-05-05T00:48 | 5357 | 533 | -5.5 | -8.7 | ||
| 2013-05-05T00:48 | 5381 | 532 | -5.7 | -9.8 | ||
| 2013-05-05T00:48 | 5436 | 528 | -6.3 | -10.3 | ||
| 2013-05-05T00:48 | 5442 | 528 | 285 | 12 | ||
| 2013-05-05T00:48 | 5491 | 524 | -6.6 | -10.8 | ||
| 2013-05-05T00:49 | 5630 | 515 | -7.0 | -9.2 | ||
| 2013-05-05T00:49 | 5749 | 507 | -7.7 | -11.2 | ||
| 2013-05-05T00:49 | 5804 | 504 | 284 | 12 | ||
| 2013-05-05T00:49 | 5842 | 501 | -7.9 | -11.9 | ||
| 2013-05-05T00:50 | 6016 | 490 | -8.8 | -12.9 | ||
| 2013-05-05T00:50 | 6078 | 486 | -9.2 | -13.0 | ||
| 2013-05-05T00:50 | 6176 | 480 | 282 | 16 | ||
| 2013-05-05T00:51 | 6466 | 462 | -11.3 | -15.7 | ||
| 2013-05-05T00:51 | 6531 | 458 | 266 | 14 | ||
| 2013-05-05T00:51 | 6578 | 456 | -11.8 | -16.3 | ||
| 2013-05-05T00:51 | 6649 | 451 | -12.2 | -17.4 | ||
| 2013-05-05T00:52 | 6820 | 441 | -13.0 | -18.6 | ||
| 2013-05-05T00:52 | 6891 | 437 | 268 | 16 | ||
| 2013-05-05T00:53 | 7163 | 422 | -14.9 | -19.8 | ||
| 2013-05-05T00:53 | 7240 | 418 | 270 | 13 | ||
| 2013-05-05T00:53 | 7409 | 408 | -16.9 | -20.9 | ||
| 2013-05-05T00:54 | 7551 | 401 | -18.0 | -21.8 | ||
| 2013-05-05T00:54 | 7594 | 398 | 268 | 15 | ||
| 2013-05-05T00:54 | 7687 | 394 | -18.6 | -22.6 | ||
| 2013-05-05T00:54 | 7738 | 391 | -18.8 | -23.1 | ||
| 2013-05-05T00:55 | 7805 | 387 | -18.8 | -25.6 | ||
| 2013-05-05T00:55 | 7896 | 383 | -19.3 | -24.2 | ||
| 2013-05-05T00:55 | 7958 | 379 | 261 | 18 | ||
| 2013-05-05T00:56 | 8144 | 370 | -21.2 | -25.5 | ||
| 2013-05-05T00:56 | 8299 | 362 | 256 | 17 | ||
| 2013-05-05T00:56 | 8323 | 361 | -22.6 | -26.7 | ||
| 2013-05-05T00:56 | 8378 | 358 | -22.8 | -27.2 | ||
| 2013-05-05T00:57 | 8598 | 348 | -24.4 | -33.0 | ||
| 2013-05-05T00:57 | 8644 | 346 | 277 | 17 | ||
| 2013-05-05T00:58 | 8831 | 337 | -26.4 | -38.5 | ||
| 2013-05-05T00:58 | 8958 | 331 | -27.5 | -36.5 | ||
| 2013-05-05T00:58 | 8978 | 330 | 272 | 17 | ||
| 2013-05-05T00:58 | 9008 | 329 | -27.9 | -35.3 | ||
| 2013-05-05T00:58 | 9103 | 324 | -28.7 | -34.2 | ||
| 2013-05-05T00:59 | 9236 | 318 | -29.8 | -34.8 | ||
| 2013-05-05T00:59 | 9331 | 314 | 263 | 18 | ||
| 2013-05-05T00:59 | 9415 | 310 | -31.1 | -34.1 | ||
| 2013-05-05T01:00 | 9581 | 303 | -32.3 | -36.4 | ||
| 2013-05-05T01:00 | 9696 | 298 | 268 | 19 | ||
| 2013-05-05T01:00 | 9752 | 296 | -33.7 | -37.7 | ||
| 2013-05-05T01:01 | 10014 | 285 | -36.0 | -41.1 | ||
| 2013-05-05T01:01 | 10065 | 283 | 268 | 22 | ||
| 2013-05-05T01:02 | 10438 | 268 | 275 | 25 | ||
| 2013-05-05T01:02 | 10567 | 263 | -40.0 | -43.6 | ||
| 2013-05-05T01:03 | 10833 | 253 | 273 | 26 | ||
| 2013-05-05T01:04 | 11225 | 239 | 280 | 24 | ||
| 2013-05-05T01:05 | 11614 | 225 | 281 | 22 | ||
| 2013-05-05T01:06 | 12023 | 211 | 272 | 21 | ||
| 2013-05-05T01:06 | 12054 | 210 | -51.1 | |||
| 2013-05-05T01:07 | 12375 | 200 | 265 | 21 | ||
| 2013-05-05T01:08 | 12697 | 190 | -55.3 | |||
| 2013-05-05T01:08 | 12747 | 189 | 261 | 21 | ||
| 2013-05-05T01:09 | 13150 | 177 | 269 | 25 | ||
| 2013-05-05T01:09 | 13240 | 175 | -57.2 | |||
| 2013-05-05T01:10 | 13538 | 167 | 266 | 24 | ||
| 2013-05-05T01:11 | 13908 | 157 | 273 | 25 | ||
| 2013-05-05T01:11 | 13958 | 156 | -62.3 | |||
| 2013-05-05T01:12 | 14311 | 147 | 266 | 25 | ||
| 2013-05-05T01:12 | 14432 | 144 | -65.5 | |||
| 2013-05-05T01:13 | 14672 | 139 | 271 | 26 | ||
| 2013-05-05T01:14 | 15056 | 130 | 283 | 26 | ||
| 2013-05-05T01:15 | 15323 | 124 | -70.8 | |||
| 2013-05-05T01:15 | 15501 | 121 | 295 | 23 | ||
| 2013-05-05T01:15 | 15669 | 117 | -73.6 | |||
| 2013-05-05T01:16 | 15820 | 114 | 282 | 19 | ||
| 2013-05-05T01:16 | 15826 | 114 | -73.5 | |||
| 2013-05-05T12:50 | 8 | 1016 | 23.9 | 19.0 | 90 | 7 |
| 2013-05-05T12:50 | 16 | 1015 | 23.8 | 21.5 | ||
| 2013-05-05T12:51 | 231 | 991 | 21.5 | 19.1 | ||
| 2013-05-05T12:51 | 297 | 983 | 88 | 11 | ||
| 2013-05-05T12:52 | 602 | 949 | 97 | 11 | ||
| 2013-05-05T12:52 | 640 | 945 | 17.9 | 17.7 | ||
| 2013-05-05T12:53 | 763 | 931 | 17.5 | 16.5 | ||
| 2013-05-05T12:53 | 816 | 926 | 17.5 | 16.0 | ||
| 2013-05-05T12:53 | 852 | 922 | 17.5 | 16.0 | ||
| 2013-05-05T12:53 | 891 | 918 | 18.2 | 13.5 | ||
| 2013-05-05T12:53 | 907 | 916 | 84 | 6 | ||
| 2013-05-05T12:53 | 951 | 911 | 17.9 | 14.8 | ||
| 2013-05-05T12:53 | 995 | 907 | 18.1 | 13.4 | ||
| 2013-05-05T12:53 | 1028 | 903 | 17.9 | 15.3 | ||
| 2013-05-05T12:54 | 1125 | 893 | 17.2 | 15.5 | ||
| 2013-05-05T12:54 | 1245 | 881 | 35 | 4 | ||
| 2013-05-05T12:55 | 1421 | 863 | 15.0 | 15.0 | ||
| 2013-05-05T12:55 | 1531 | 851 | 15.6 | 15.6 | ||
| 2013-05-05T12:55 | 1568 | 848 | 298 | 1 | ||
| 2013-05-05T12:55 | 1661 | 839 | 15.6 | 14.5 | ||
| 2013-05-05T12:56 | 1786 | 826 | 14.9 | 13.9 | ||
| 2013-05-05T12:56 | 1896 | 816 | 312 | 1 | ||
| 2013-05-05T12:57 | 2233 | 784 | 12.2 | 11.9 | 345 | 3 |
| 2013-05-05T12:57 | 2315 | 776 | 12.4 | 11.5 | ||
| 2013-05-05T12:58 | 2444 | 764 | 11.6 | 11.0 | ||
| 2013-05-05T12:58 | 2567 | 753 | 33 | 3 | ||
| 2013-05-05T12:59 | 2750 | 737 | 10.2 | 9.3 | ||
| 2013-05-05T12:59 | 2902 | 724 | 17 | 3 | ||
| 2013-05-05T12:59 | 2994 | 716 | 8.4 | 8.4 | ||
| 2013-05-05T13:00 | 3224 | 696 | 327 | 3 | ||
| 2013-05-05T13:00 | 3285 | 691 | 7.6 | 6.4 | ||
| 2013-05-05T13:01 | 3442 | 678 | 6.5 | 5.8 | ||
| 2013-05-05T13:01 | 3559 | 668 | 299 | 4 | ||
| 2013-05-05T13:02 | 3844 | 645 | 3.7 | 3.7 | ||
| 2013-05-05T13:02 | 3882 | 642 | 276 | 7 | ||
| 2013-05-05T13:03 | 4108 | 625 | 2.0 | 2.0 | ||
| 2013-05-05T13:03 | 4165 | 620 | 1.7 | 1.7 | ||
| 2013-05-05T13:03 | 4216 | 616 | 294 | 7 | ||
| 2013-05-05T13:03 | 4279 | 612 | 1.3 | 1.3 | ||
| 2013-05-05T13:03 | 4290 | 611 | 1.3 | 1.3 | ||
| 2013-05-05T13:03 | 4297 | 610 | 1.2 | 1.2 | ||
| 2013-05-05T13:04 | 4562 | 590 | 285 | 6 | ||
| 2013-05-05T13:04 | 4709 | 580 | -0.3 | -1.0 | ||
| 2013-05-05T13:05 | 4895 | 566 | -1.4 | -2.7 | ||
| 2013-05-05T13:05 | 4901 | 566 | 264 | 8 | ||
| 2013-05-05T13:05 | 4928 | 564 | -1.5 | -2.8 | ||
| 2013-05-05T13:06 | 5100 | 552 | -2.6 | -3.0 | ||
| 2013-05-05T13:06 | 5260 | 541 | 241 | 10 | ||
| 2013-05-05T13:06 | 5411 | 531 | -4.4 | -4.9 | ||
| 2013-05-05T13:07 | 5632 | 516 | 258 | 10 | ||
| 2013-05-05T13:07 | 5775 | 507 | -6.7 | -7.2 | ||
| 2013-05-05T13:08 | 5986 | 493 | 257 | 11 | ||
| 2013-05-05T13:09 | 6223 | 478 | -9.5 | -10.0 | ||
| 2013-05-05T13:09 | 6345 | 471 | 267 | 11 | ||
| 2013-05-05T13:10 | 6653 | 452 | -12.4 | -13.0 | ||
| 2013-05-05T13:10 | 6687 | 450 | 272 | 12 | ||
| 2013-05-05T13:11 | 7034 | 430 | -14.9 | -15.5 | ||
| 2013-05-05T13:11 | 7039 | 430 | 264 | 13 | ||
| 2013-05-05T13:12 | 7277 | 417 | -16.9 | -17.5 | ||
| 2013-05-05T13:12 | 7390 | 410 | 277 | 15 | ||
| 2013-05-05T13:12 | 7461 | 407 | -16.6 | -17.2 | ||
| 2013-05-05T13:13 | 7620 | 398 | -18.0 | -18.6 | ||
| 2013-05-05T13:13 | 7728 | 392 | 263 | 17 | ||
| 2013-05-05T13:13 | 7762 | 391 | -18.7 | -19.3 | ||
| 2013-05-05T13:14 | 7924 | 382 | -19.2 | -19.8 | ||
| 2013-05-05T13:14 | 7992 | 379 | -19.5 | -22.2 | ||
| 2013-05-05T13:14 | 8065 | 375 | 268 | 17 | ||
| 2013-05-05T13:14 | 8071 | 375 | -20.2 | -23.9 | ||
| 2013-05-05T13:15 | 8237 | 366 | -21.3 | -25.2 | ||
| 2013-05-05T13:15 | 8299 | 363 | -21.7 | -27.4 | ||
| 2013-05-05T13:15 | 8405 | 358 | 272 | 16 | ||
| 2013-05-05T13:15 | 8440 | 356 | -22.8 | -26.9 | ||
| 2013-05-05T13:15 | 8475 | 355 | -22.9 | -26.7 | ||
| 2013-05-05T13:15 | 8527 | 352 | -23.1 | -31.1 | ||
| 2013-05-05T13:16 | 8682 | 345 | -23.9 | -33.2 | ||
| 2013-05-05T13:16 | 8754 | 341 | 280 | 16 | ||
| 2013-05-05T13:16 | 8933 | 333 | -25.9 | -36.0 | ||
| 2013-05-05T13:17 | 8990 | 330 | -26.1 | -33.3 | ||
| 2013-05-05T13:17 | 9091 | 326 | -26.7 | -37.9 | ||
| 2013-05-05T13:17 | 9129 | 324 | 275 | 17 | ||
| 2013-05-05T13:18 | 9510 | 307 | 273 | 18 | ||
| 2013-05-05T13:18 | 9608 | 303 | -31.0 | -40.4 | ||
| 2013-05-05T13:19 | 9881 | 292 | 268 | 16 | ||
| 2013-05-05T13:20 | 10184 | 279 | -36.2 | -43.1 | ||
| 2013-05-05T13:20 | 10244 | 277 | 258 | 18 | ||
| 2013-05-05T13:20 | 10398 | 271 | -38.1 | -44.7 | ||
| 2013-05-05T13:21 | 10601 | 263 | 253 | 16 | ||
| 2013-05-05T13:21 | 10629 | 262 | -40.0 | -45.0 | ||
| 2013-05-05T13:22 | 10966 | 249 | 259 | 18 | ||
| 2013-05-05T13:23 | 11320 | 236 | 267 | 19 | ||
| 2013-05-05T13:24 | 11673 | 224 | 267 | 23 | ||
| 2013-05-05T13:25 | 11908 | 216 | -51.0 | |||
| 2013-05-05T13:25 | 12005 | 213 | 264 | 23 | ||
| 2013-05-05T13:26 | 12334 | 202 | 265 | 24 | ||
| 2013-05-05T13:26 | 12469 | 198 | -55.2 | |||
| 2013-05-05T13:27 | 12672 | 192 | 263 | 25 | ||
| 2013-05-05T13:27 | 12806 | 188 | -55.7 | |||
| 2013-05-05T13:28 | 13005 | 182 | 266 | 26 | ||
| 2013-05-05T13:29 | 13199 | 177 | -58.0 | |||
| 2013-05-05T13:29 | 13369 | 172 | 273 | 26 | ||
| 2013-05-05T13:29 | 13387 | 171 | -58.2 | |||
| 2013-05-05T13:30 | 13763 | 161 | 280 | 26 | ||
| 2013-05-05T13:30 | 13903 | 158 | -61.7 | |||
| 2013-05-05T13:31 | 14224 | 150 | 280 | 24 | ||
| 2013-05-05T13:32 | 14714 | 138 | 275 | 22 | ||
| 2013-05-05T13:32 | 14732 | 138 | -67.2 | |||
| 2013-05-05T13:33 | 15017 | 131 | 262 | 21 | ||
| 2013-05-05T13:33 | 15021 | 131 | -70.0 | |||
| 2013-05-05T23:30 | 8 | 1015 | 24.3 | 18.9 | 90 | 5 |
| 2013-05-05T23:31 | 184 | 995 | 21.8 | 17.4 | ||
| 2013-05-05T23:31 | 337 | 977 | 103 | 6 | ||
| 2013-05-05T23:32 | 712 | 936 | 17.0 | 15.7 | ||
| 2013-05-05T23:32 | 717 | 935 | 114 | 6 | ||
| 2013-05-05T23:32 | 843 | 922 | 16.3 | 14.1 | ||
| 2013-05-05T23:33 | 952 | 910 | 17.2 | 8.6 | ||
| 2013-05-05T23:33 | 980 | 907 | 17.5 | 4.8 | ||
| 2013-05-05T23:33 | 997 | 905 | 18.4 | -5.6 | ||
| 2013-05-05T23:33 | 1048 | 900 | 18.9 | -12.2 | ||
| 2013-05-05T23:33 | 1059 | 899 | 115 | 4 | ||
| 2013-05-05T23:33 | 1098 | 894 | 18.5 | -4.9 | ||
| 2013-05-05T23:33 | 1165 | 887 | 18.0 | 4.9 | ||
| 2013-05-05T23:33 | 1187 | 885 | 17.9 | 9.5 | ||
| 2013-05-05T23:33 | 1197 | 884 | 17.8 | 9.2 | ||
| 2013-05-05T23:34 | 1321 | 871 | 17.0 | 9.9 | ||
| 2013-05-05T23:34 | 1365 | 867 | 17.0 | 11.9 | ||
| 2013-05-05T23:34 | 1387 | 865 | 80 | 3 | ||
| 2013-05-05T23:35 | 1559 | 847 | 15.9 | 12.5 | ||
| 2013-05-05T23:35 | 1738 | 830 | 58 | 3 | ||
| 2013-05-05T23:35 | 1898 | 814 | 13.9 | 11.2 | ||
| 2013-05-05T23:36 | 2093 | 796 | 0 | 0 | ||
| 2013-05-05T23:36 | 2099 | 795 | 12.7 | 11.1 | ||
| 2013-05-05T23:37 | 2319 | 775 | 12.0 | 9.9 | ||
| 2013-05-05T23:37 | 2438 | 764 | 210 | 2 | ||
| 2013-05-05T23:38 | 2768 | 734 | 284 | 1 | ||
| 2013-05-05T23:38 | 2830 | 729 | 9.4 | 7.5 | ||
| 2013-05-05T23:39 | 3123 | 703 | 7.6 | 5.2 | 338 | 3 |
| 2013-05-05T23:40 | 3334 | 686 | 6.3 | 4.3 | ||
| 2013-05-05T23:40 | 3485 | 673 | 329 | 3 | ||
| 2013-05-05T23:40 | 3508 | 671 | 5.1 | 4.1 | ||
| 2013-05-05T23:41 | 3844 | 644 | 262 | 2 | ||
| 2013-05-05T23:42 | 4040 | 629 | 2.0 | 1.9 | ||
| 2013-05-05T23:42 | 4100 | 624 | 2.4 | 1.5 | ||
| 2013-05-05T23:42 | 4197 | 617 | 1.6 | 0.7 | ||
| 2013-05-05T23:42 | 4202 | 616 | 0 | 0 | ||
| 2013-05-05T23:42 | 4295 | 609 | 1.1 | 0.4 | ||
| 2013-05-05T23:42 | 4308 | 608 | 0.9 | 0.2 | ||
| 2013-05-05T23:43 | 4549 | 590 | -0.5 | -1.5 | ||
| 2013-05-05T23:43 | 4560 | 589 | 334 | 3 | ||
| 2013-05-05T23:44 | 4751 | 575 | -0.9 | -3.3 | ||
| 2013-05-05T23:44 | 4922 | 563 | 313 | 5 | ||
| 2013-05-05T23:45 | 5160 | 547 | -3.4 | -4.8 | ||
| 2013-05-05T23:45 | 5290 | 538 | 284 | 6 | ||
| 2013-05-05T23:46 | 5592 | 517 | -5.9 | -6.4 | ||
| 2013-05-05T23:46 | 5667 | 513 | 248 | 7 | ||
| 2013-05-05T23:46 | 5784 | 505 | -7.4 | -8.6 | ||
| 2013-05-05T23:47 | 6017 | 490 | -9.2 | -9.7 | ||
| 2013-05-05T23:47 | 6036 | 489 | 261 | 8 | ||
| 2013-05-05T23:48 | 6427 | 465 | 290 | 8 | ||
| 2013-05-05T23:49 | 6628 | 453 | -13.0 | -13.6 | ||
| 2013-05-05T23:49 | 6798 | 443 | 285 | 10 | ||
| 2013-05-05T23:50 | 6997 | 431 | -14.8 | -15.4 | ||
| 2013-05-05T23:50 | 7185 | 421 | 299 | 13 | ||
| 2013-05-05T23:51 | 7554 | 400 | 296 | 15 | ||
| 2013-05-05T23:51 | 7578 | 399 | -19.0 | -20.9 | ||
| 2013-05-05T23:52 | 7835 | 385 | -20.7 | -22.8 | ||
| 2013-05-05T23:52 | 7937 | 380 | 280 | 13 | ||
| 2013-05-05T23:52 | 8010 | 376 | -22.0 | -26.2 | ||
| 2013-05-05T23:53 | 8312 | 361 | -24.1 | -27.0 | ||
| 2013-05-05T23:53 | 8324 | 361 | 279 | 15 | ||
| 2013-05-05T23:54 | 8657 | 344 | -26.4 | -29.1 | ||
| 2013-05-05T23:54 | 8685 | 343 | -26.6 | -29.8 | ||
| 2013-05-05T23:54 | 8712 | 342 | 268 | 16 | ||
| 2013-05-05T23:54 | 8725 | 341 | -26.8 | -30.6 | ||
| 2013-05-05T23:55 | 9087 | 324 | -29.7 | -34.0 | ||
| 2013-05-05T23:55 | 9100 | 324 | 266 | 19 | ||
| 2013-05-05T23:56 | 9339 | 313 | -31.4 | -38.6 | ||
| 2013-05-05T23:56 | 9462 | 308 | 265 | 19 | ||
| 2013-05-05T23:56 | 9515 | 305 | -32.5 | -40.4 | ||
| 2013-05-05T23:57 | 9715 | 297 | -33.8 | -42.3 | ||
| 2013-05-05T23:57 | 9827 | 292 | 270 | 18 | ||
| 2013-05-05T23:58 | 10030 | 284 | -36.2 | -43.9 | ||
| 2013-05-05T23:58 | 10195 | 277 | 273 | 17 | ||
| 2013-05-05T23:58 | 10359 | 271 | -38.5 | -45.6 | ||
| 2013-05-05T23:59 | 10559 | 263 | -40.0 | -47.8 | 264 | 17 |
| 2013-05-06T00:00 | 10930 | 249 | 267 | 20 | ||
| 2013-05-06T00:01 | 11282 | 236 | -45.7 | |||
| 2013-05-06T00:01 | 11299 | 235 | 267 | 20 | ||
| 2013-05-06T00:02 | 11560 | 226 | -47.3 | |||
| 2013-05-06T00:02 | 11669 | 223 | 256 | 17 | ||
| 2013-05-06T00:03 | 11952 | 213 | -50.3 | |||
| 2013-05-06T00:03 | 12057 | 210 | 265 | 19 | ||
| 2013-05-06T00:04 | 12460 | 197 | 272 | 23 | ||
| 2013-05-06T00:05 | 12881 | 185 | 280 | 23 | ||
| 2013-05-06T00:06 | 13142 | 177 | -59.0 | |||
| 2013-05-06T00:06 | 13282 | 173 | 288 | 24 | ||
| 2013-05-06T00:06 | 13358 | 171 | -59.3 | |||
| 2013-05-06T00:07 | 13551 | 166 | -60.1 | |||
| 2013-05-06T00:07 | 13680 | 162 | 282 | 21 | ||
| 2013-05-06T00:08 | 14112 | 151 | -64.1 | |||
| 2013-05-06T00:08 | 14120 | 151 | 291 | 19 | ||
| 2013-05-06T00:09 | 14532 | 141 | -66.6 | |||
| 2013-05-06T00:09 | 14575 | 140 | 281 | 18 | ||
| 2013-05-06T00:09 | 14776 | 136 | -68.1 | |||
| 2013-05-06T00:10 | 15033 | 130 | 274 | 17 | ||
| 2013-05-06T00:10 | 15206 | 126 | -69.2 | |||
| 2013-05-06T00:11 | 15554 | 119 | 281 | 18 | ||
| 2013-05-06T00:12 | 15870 | 113 | -75.6 | |||
| 2013-05-06T12:58 | 8 | 1015 | 24.2 | 18.8 | 90 | 5 |
| 2013-05-06T12:58 | 26 | 1012 | 23.6 | 18.9 | ||
| 2013-05-06T12:58 | 118 | 1002 | 22.9 | 17.6 | ||
| 2013-05-06T12:59 | 327 | 978 | 91 | 9 | ||
| 2013-05-06T12:59 | 430 | 966 | 19.9 | 16.0 | ||
| 2013-05-06T12:59 | 490 | 960 | 19.4 | 15.5 | ||
| 2013-05-06T13:00 | 688 | 938 | 98 | 7 | ||
| 2013-05-06T13:00 | 757 | 930 | 17.8 | 11.1 | ||
| 2013-05-06T13:01 | 859 | 919 | 17.7 | 7.2 | ||
| 2013-05-06T13:01 | 902 | 915 | 17.5 | 5.1 | ||
| 2013-05-06T13:01 | 946 | 910 | 17.3 | 4.6 | ||
| 2013-05-06T13:01 | 990 | 905 | 17.4 | 0.5 | ||
| 2013-05-06T13:01 | 1012 | 903 | 17.3 | 1.3 | ||
| 2013-05-06T13:01 | 1022 | 902 | 84 | 4 | ||
| 2013-05-06T13:01 | 1066 | 897 | 17.2 | 1.2 | ||
| 2013-05-06T13:01 | 1105 | 893 | 17.1 | 3.8 | ||
| 2013-05-06T13:01 | 1161 | 887 | 16.6 | 4.0 | ||
| 2013-05-06T13:02 | 1190 | 884 | 16.3 | 5.9 | ||
| 2013-05-06T13:02 | 1207 | 883 | 16.2 | 7.7 | ||
| 2013-05-06T13:02 | 1213 | 882 | 16.1 | 6.5 | ||
| 2013-05-06T13:02 | 1275 | 876 | 15.5 | 8.5 | ||
| 2013-05-06T13:02 | 1344 | 869 | 15.2 | 10.8 | ||
| 2013-05-06T13:02 | 1362 | 867 | 2 | 3 | ||
| 2013-05-06T13:02 | 1523 | 850 | 15.4 | 12.2 | ||
| 2013-05-06T13:03 | 1709 | 832 | 332 | 1 | ||
| 2013-05-06T13:03 | 1856 | 818 | 14.4 | 11.4 | ||
| 2013-05-06T13:04 | 2035 | 801 | 13.4 | 11.5 | ||
| 2013-05-06T13:04 | 2040 | 800 | 222 | 1 | ||
| 2013-05-06T13:04 | 2186 | 786 | 12.9 | 10.3 | ||
| 2013-05-06T13:05 | 2375 | 769 | 249 | 3 | ||
| 2013-05-06T13:05 | 2511 | 757 | 11.6 | 9.0 | ||
| 2013-05-06T13:06 | 2674 | 742 | 11.3 | 7.8 | ||
| 2013-05-06T13:06 | 2714 | 738 | 218 | 4 | ||
| 2013-05-06T13:07 | 3055 | 709 | 227 | 5 | ||
| 2013-05-06T13:07 | 3174 | 699 | 7.6 | 5.4 | ||
| 2013-05-06T13:08 | 3409 | 679 | 245 | 6 | ||
| 2013-05-06T13:08 | 3442 | 676 | 5.6 | 5.5 | ||
| 2013-05-06T13:09 | 3717 | 654 | 3.6 | 3.3 | ||
| 2013-05-06T13:09 | 3738 | 652 | 276 | 6 | ||
| 2013-05-06T13:09 | 3766 | 650 | 3.9 | 2.6 | ||
| 2013-05-06T13:09 | 3853 | 643 | 4.7 | 2.6 | ||
| 2013-05-06T13:10 | 4067 | 626 | 290 | 7 | ||
| 2013-05-06T13:10 | 4173 | 618 | 3.0 | 0.2 | ||
| 2013-05-06T13:11 | 4344 | 605 | 1.7 | -0.4 | ||
| 2013-05-06T13:11 | 4407 | 601 | 1.5 | -0.3 | ||
| 2013-05-06T13:11 | 4412 | 600 | 276 | 7 | ||
| 2013-05-06T13:11 | 4562 | 589 | 0.6 | -1.6 | ||
| 2013-05-06T13:12 | 4696 | 579 | -0.5 | -2.6 | ||
| 2013-05-06T13:12 | 4712 | 578 | -0.6 | -2.5 | ||
| 2013-05-06T13:12 | 4747 | 576 | 271 | 10 | ||
| 2013-05-06T13:12 | 4753 | 575 | -0.7 | -2.6 | ||
| 2013-05-06T13:12 | 4853 | 568 | -1.4 | -3.8 | ||
| 2013-05-06T13:12 | 4874 | 567 | -1.4 | -4.2 | ||
| 2013-05-06T13:13 | 4925 | 563 | -1.7 | -4.0 | ||
| 2013-05-06T13:13 | 5082 | 552 | 262 | 8 | ||
| 2013-05-06T13:13 | 5222 | 542 | -3.9 | -5.4 | ||
| 2013-05-06T13:14 | 5328 | 535 | -4.2 | -5.9 | ||
| 2013-05-06T13:14 | 5415 | 529 | 255 | 8 | ||
| 2013-05-06T13:14 | 5444 | 527 | -5.1 | -6.8 | ||
| 2013-05-06T13:15 | 5759 | 507 | 261 | 11 | ||
| 2013-05-06T13:15 | 5771 | 506 | -7.1 | -8.2 | ||
| 2013-05-06T13:16 | 6082 | 486 | -9.6 | -10.1 | ||
| 2013-05-06T13:16 | 6100 | 485 | 263 | 11 | ||
| 2013-05-06T13:17 | 6437 | 464 | 266 | 10 | ||
| 2013-05-06T13:18 | 6725 | 447 | -12.7 | -14.4 | ||
| 2013-05-06T13:18 | 6800 | 443 | 273 | 13 | ||
| 2013-05-06T13:18 | 6812 | 442 | -13.2 | -15.8 | ||
| 2013-05-06T13:18 | 6850 | 440 | -12.9 | -16.9 | ||
| 2013-05-06T13:18 | 6882 | 438 | -12.9 | -15.6 | ||
| 2013-05-06T13:19 | 7019 | 430 | -13.8 | -17.9 | ||
| 2013-05-06T13:19 | 7172 | 421 | 271 | 12 | ||
| 2013-05-06T13:19 | 7220 | 419 | -15.4 | -19.3 | ||
| 2013-05-06T13:19 | 7296 | 415 | -15.5 | -19.7 | ||
| 2013-05-06T13:19 | 7346 | 412 | -15.5 | -21.1 | ||
| 2013-05-06T13:20 | 7542 | 401 | 265 | 16 | ||
| 2013-05-06T13:21 | 7906 | 382 | 273 | 18 | ||
| 2013-05-06T13:21 | 8031 | 376 | -21.2 | -24.0 | ||
| 2013-05-06T13:22 | 8282 | 363 | 274 | 19 | ||
| 2013-05-06T13:22 | 8359 | 359 | -23.6 | -27.2 | ||
| 2013-05-06T13:23 | 8614 | 347 | -25.7 | -29.0 | ||
| 2013-05-06T13:23 | 8675 | 344 | 274 | 20 | ||
| 2013-05-06T13:23 | 8760 | 340 | -26.4 | -32.0 | ||
| 2013-05-06T13:24 | 8916 | 333 | -27.1 | -31.2 | ||
| 2013-05-06T13:24 | 9069 | 326 | 277 | 23 | ||
| 2013-05-06T13:25 | 9471 | 308 | 278 | 23 | ||
| 2013-05-06T13:25 | 9552 | 304 | -32.6 | -36.1 | ||
| 2013-05-06T13:26 | 9829 | 293 | -34.9 | -39.5 | ||
| 2013-05-06T13:26 | 9870 | 291 | 272 | 25 | ||
| 2013-05-06T13:27 | 10251 | 275 | -38.3 | -41.5 | ||
| 2013-05-06T13:27 | 10279 | 274 | 264 | 25 | ||
| 2013-05-06T13:27 | 10482 | 266 | -40.0 | -44.2 | ||
| 2013-05-06T13:28 | 10690 | 258 | 274 | 23 | ||
| 2013-05-06T13:29 | 10889 | 251 | -43.3 | |||
| 2013-05-06T13:29 | 11079 | 244 | 283 | 23 | ||
| 2013-05-06T13:30 | 11474 | 230 | 283 | 26 | ||
| 2013-05-06T13:30 | 11479 | 229 | -46.7 | |||
| 2013-05-06T13:31 | 11864 | 216 | 286 | 25 | ||
| 2013-05-06T13:32 | 12261 | 204 | 287 | 23 | ||
| 2013-05-06T13:33 | 12625 | 192 | 285 | 25 | ||
| 2013-05-06T13:33 | 12632 | 192 | -54.4 | |||
| 2013-05-06T13:34 | 13030 | 181 | 286 | 26 | ||
| 2013-05-06T13:35 | 13317 | 173 | -56.5 | |||
| 2013-05-06T13:35 | 13454 | 169 | 299 | 26 | ||
| 2013-05-06T13:36 | 13881 | 158 | 297 | 21 | ||
| 2013-05-06T13:37 | 14187 | 150 | -62.4 | |||
| 2013-05-06T13:37 | 14315 | 147 | 275 | 15 | ||
| 2013-05-06T13:38 | 14780 | 136 | 277 | 19 | ||
| 2013-05-06T13:38 | 14887 | 134 | -67.6 | |||
| 2013-05-06T13:39 | 15083 | 130 | -67.9 | |||
| 2013-05-06T13:39 | 15309 | 125 | 283 | 19 | ||
| 2013-05-06T13:40 | 15606 | 119 | -71.7 | |||
| 2013-05-06T13:40 | 15751 | 116 | 302 | 20 | ||
| 2013-05-06T13:40 | 15787 | 115 | -73.0 | |||
| 2013-05-07T01:03 | 8 | 1015 | 26.1 | 20.0 | 80 | 6 |
| 2013-05-07T01:03 | 12 | 1014 | 24.4 | 21.1 | ||
| 2013-05-07T01:03 | 86 | 1006 | 23.7 | 19.2 | ||
| 2013-05-07T01:04 | 382 | 972 | 92 | 7 | ||
| 2013-05-07T01:05 | 620 | 946 | 18.6 | 17.1 | ||
| 2013-05-07T01:05 | 639 | 943 | 18.4 | 16.6 | ||
| 2013-05-07T01:05 | 784 | 928 | 115 | 6 | ||
| 2013-05-07T01:05 | 790 | 927 | 17.4 | 15.9 | ||
| 2013-05-07T01:06 | 992 | 905 | 16.2 | 14.2 | ||
| 2013-05-07T01:06 | 1101 | 894 | 15.6 | 14.3 | ||
| 2013-05-07T01:06 | 1135 | 890 | 112 | 4 | ||
| 2013-05-07T01:06 | 1183 | 885 | 15.4 | 14.4 | ||
| 2013-05-07T01:06 | 1212 | 882 | 16.8 | 10.4 | ||
| 2013-05-07T01:06 | 1308 | 872 | 16.8 | 6.6 | ||
| 2013-05-07T01:07 | 1319 | 871 | 17.2 | 4.2 | ||
| 2013-05-07T01:07 | 1331 | 870 | 17.5 | 9.9 | ||
| 2013-05-07T01:07 | 1422 | 861 | 17.0 | 10.6 | ||
| 2013-05-07T01:07 | 1452 | 858 | 16.9 | 13.0 | ||
| 2013-05-07T01:07 | 1494 | 854 | 27 | 1 | ||
| 2013-05-07T01:08 | 1854 | 818 | 3 | 2 | ||
| 2013-05-07T01:08 | 1989 | 805 | 13.7 | 11.7 | ||
| 2013-05-07T01:09 | 2154 | 790 | 13.2 | 10.9 | ||
| 2013-05-07T01:09 | 2223 | 783 | 358 | 6 | ||
| 2013-05-07T01:09 | 2241 | 782 | 12.6 | 10.3 | ||
| 2013-05-07T01:10 | 2539 | 754 | 10.8 | 8.2 | ||
| 2013-05-07T01:10 | 2580 | 751 | 332 | 7 | ||
| 2013-05-07T01:11 | 2848 | 727 | 8.5 | 7.3 | ||
| 2013-05-07T01:11 | 2943 | 719 | 353 | 5 | ||
| 2013-05-07T01:11 | 3079 | 707 | 7.1 | 6.8 | ||
| 2013-05-07T01:12 | 3175 | 699 | 7.5 | 5.8 | ||
| 2013-05-07T01:12 | 3302 | 688 | 288 | 4 | ||
| 2013-05-07T01:13 | 3567 | 666 | 4.7 | 4.6 | ||
| 2013-05-07T01:13 | 3645 | 660 | 4.5 | 4.1 | ||
| 2013-05-07T01:13 | 3682 | 657 | 285 | 8 | ||
| 2013-05-07T01:13 | 3846 | 644 | 3.0 | 2.7 | ||
| 2013-05-07T01:14 | 3954 | 635 | 3.6 | 1.6 | ||
| 2013-05-07T01:14 | 4032 | 629 | 269 | 10 | ||
| 2013-05-07T01:14 | 4124 | 622 | 2.8 | -0.8 | ||
| 2013-05-07T01:14 | 4176 | 618 | 2.5 | -2.2 | ||
| 2013-05-07T01:15 | 4326 | 607 | 1.4 | -3.1 | ||
| 2013-05-07T01:15 | 4379 | 603 | 277 | 10 | ||
| 2013-05-07T01:15 | 4386 | 602 | 1.2 | -6.2 | ||
| 2013-05-07T01:15 | 4445 | 598 | 1.2 | -10.6 | ||
| 2013-05-07T01:16 | 4574 | 588 | 0.9 | -8.9 | ||
| 2013-05-07T01:16 | 4616 | 585 | 0.8 | -10.7 | ||
| 2013-05-07T01:16 | 4648 | 583 | 0.9 | -13.6 | ||
| 2013-05-07T01:16 | 4669 | 581 | 0.8 | -15.7 | ||
| 2013-05-07T01:16 | 4692 | 580 | 0.6 | -16.3 | ||
| 2013-05-07T01:16 | 4705 | 579 | 0.5 | -16.8 | ||
| 2013-05-07T01:16 | 4736 | 577 | 287 | 10 | ||
| 2013-05-07T01:16 | 4806 | 571 | 0.0 | -19.8 | ||
| 2013-05-07T01:16 | 4880 | 566 | -0.4 | -18.5 | ||
| 2013-05-07T01:17 | 4914 | 564 | -0.5 | -13.8 | ||
| 2013-05-07T01:17 | 4989 | 559 | -1.1 | -15.3 | ||
| 2013-05-07T01:17 | 5079 | 552 | 293 | 11 | ||
| 2013-05-07T01:17 | 5095 | 551 | -2.1 | -12.2 | ||
| 2013-05-07T01:17 | 5204 | 544 | -3.2 | -11.9 | ||
| 2013-05-07T01:17 | 5215 | 543 | -3.3 | -11.5 | ||
| 2013-05-07T01:18 | 5274 | 539 | -3.8 | -11.8 | ||
| 2013-05-07T01:18 | 5303 | 537 | -4.1 | -13.0 | ||
| 2013-05-07T01:18 | 5337 | 535 | -4.3 | -15.3 | ||
| 2013-05-07T01:18 | 5368 | 532 | -4.4 | -9.2 | ||
| 2013-05-07T01:18 | 5427 | 528 | 283 | 13 | ||
| 2013-05-07T01:18 | 5499 | 524 | -5.0 | -9.6 | ||
| 2013-05-07T01:19 | 5743 | 508 | -6.6 | -12.7 | ||
| 2013-05-07T01:19 | 5792 | 504 | 286 | 12 | ||
| 2013-05-07T01:19 | 5871 | 499 | -7.4 | -15.3 | ||
| 2013-05-07T01:20 | 6158 | 481 | -9.4 | -16.1 | 284 | 11 |
| 2013-05-07T01:21 | 6520 | 459 | 290 | 11 | ||
| 2013-05-07T01:21 | 6561 | 457 | -12.5 | -16.8 | ||
| 2013-05-07T01:21 | 6623 | 453 | -12.7 | -16.7 | ||
| 2013-05-07T01:22 | 6768 | 444 | -13.1 | -22.3 | ||
| 2013-05-07T01:22 | 6868 | 439 | -13.4 | -23.1 | ||
| 2013-05-07T01:22 | 6887 | 438 | 290 | 15 | ||
| 2013-05-07T01:22 | 6962 | 433 | -14.0 | -25.3 | ||
| 2013-05-07T01:23 | 7112 | 425 | -15.2 | -24.0 | ||
| 2013-05-07T01:23 | 7250 | 417 | 292 | 16 | ||
| 2013-05-07T01:23 | 7297 | 414 | -16.6 | -24.8 | ||
| 2013-05-07T01:24 | 7462 | 405 | -17.1 | -26.0 | ||
| 2013-05-07T01:24 | 7615 | 397 | -18.3 | -26.0 | ||
| 2013-05-07T01:24 | 7621 | 397 | 287 | 18 | ||
| 2013-05-07T01:25 | 7829 | 386 | -20.2 | -24.6 | ||
| 2013-05-07T01:25 | 7947 | 380 | -21.0 | -25.3 | ||
| 2013-05-07T01:25 | 8027 | 376 | 288 | 19 | ||
| 2013-05-07T01:25 | 8063 | 374 | -21.3 | -29.4 | ||
| 2013-05-07T01:26 | 8384 | 358 | -23.1 | -34.6 | ||
| 2013-05-07T01:26 | 8433 | 356 | 279 | 20 | ||
| 2013-05-07T01:26 | 8543 | 350 | -24.1 | -35.8 | ||
| 2013-05-07T01:27 | 8841 | 336 | 284 | 19 | ||
| 2013-05-07T01:27 | 8923 | 332 | -27.2 | -35.8 | ||
| 2013-05-07T01:27 | 9019 | 328 | -28.1 | -34.7 | ||
| 2013-05-07T01:28 | 9249 | 318 | 284 | 19 | ||
| 2013-05-07T01:28 | 9270 | 317 | -30.3 | -36.1 | ||
| 2013-05-07T01:29 | 9660 | 300 | 291 | 20 | ||
| 2013-05-07T01:29 | 9830 | 292 | -34.8 | -41.2 | ||
| 2013-05-07T01:30 | 10064 | 283 | 295 | 27 | ||
| 2013-05-07T01:31 | 10406 | 269 | -40.0 | -46.3 | ||
| 2013-05-07T01:31 | 10485 | 266 | 294 | 30 | ||
| 2013-05-07T01:32 | 10897 | 250 | 290 | 31 | ||
| 2013-05-07T01:33 | 11298 | 236 | 293 | 30 | ||
| 2013-05-07T01:33 | 11318 | 235 | -46.5 | |||
| 2013-05-07T01:34 | 11691 | 222 | 290 | 33 | ||
| 2013-05-07T01:35 | 11915 | 215 | -50.8 | |||
| 2013-05-07T01:35 | 12074 | 209 | 288 | 32 | ||
| 2013-05-07T01:36 | 12423 | 198 | 286 | 29 | ||
| 2013-05-07T01:36 | 12459 | 197 | -53.6 | |||
| 2013-05-07T01:37 | 12664 | 191 | -54.0 | |||
| 2013-05-07T01:37 | 12776 | 188 | 277 | 26 | ||
| 2013-05-07T01:38 | 13128 | 178 | 273 | 24 | ||
| 2013-05-07T01:39 | 13316 | 172 | -57.6 | |||
| 2013-05-07T01:39 | 13482 | 168 | 272 | 25 | ||
| 2013-05-07T01:40 | 13835 | 159 | 268 | 23 | ||
| 2013-05-07T01:41 | 14021 | 154 | -61.8 | |||
| 2013-05-07T01:41 | 14187 | 150 | 264 | 25 | ||
| 2013-05-07T01:42 | 14579 | 141 | 273 | 26 | ||
| 2013-05-07T01:43 | 14811 | 135 | -67.7 | |||
| 2013-05-07T01:43 | 15028 | 131 | 289 | 22 | ||
| 2013-05-07T01:44 | 15487 | 121 | 300 | 20 | ||
| 2013-05-07T01:44 | 15546 | 120 | -71.5 | |||
| 2013-05-07T01:45 | 15896 | 113 | 304 | 16 | ||
| 2013-05-07T01:46 | 16179 | 107 | -72.5 | |||
| 2013-05-07T01:46 | 16273 | 106 | 322 | 12 | ||
| 2013-05-07T01:47 | 16730 | 98 | -75.8 | |||
| 2013-05-07T01:47 | 16748 | 97 | 275 | 7 | ||
| 2013-05-07T01:48 | 17201 | 90 | -79.0 | |||
| 2013-05-07T01:48 | 17245 | 89 | 286 | 13 | ||
| 2013-05-07T01:49 | 17609 | 84 | -77.0 | |||
| 2013-05-07T01:49 | 17713 | 82 | 325 | 11 | ||
| 2013-05-07T01:49 | 17769 | 82 | -75.4 | |||
| 2013-05-07T01:50 | 17950 | 79 | -73.6 | |||
| 2013-05-07T11:30 | 8 | 1013 | 23.9 | 19.6 | 80 | 7 |
| 2013-05-07T11:30 | 19 | 1012 | 23.3 | 19.7 | ||
| 2013-05-07T11:31 | 325 | 977 | 84 | 9 | ||
| 2013-05-07T11:32 | 560 | 951 | 18.6 | 17.3 | ||
| 2013-05-07T11:32 | 685 | 937 | 91 | 9 | ||
| 2013-05-07T11:32 | 794 | 925 | 16.8 | 15.0 | ||
| 2013-05-07T11:33 | 865 | 918 | 16.8 | 12.5 | ||
| 2013-05-07T11:33 | 906 | 913 | 16.9 | 10.7 | ||
| 2013-05-07T11:33 | 1038 | 899 | 73 | 6 | ||
| 2013-05-07T11:33 | 1043 | 899 | 16.4 | 12.4 | ||
| 2013-05-07T11:33 | 1113 | 891 | 16.5 | 10.4 | ||
| 2013-05-07T11:33 | 1164 | 886 | 16.9 | 5.2 | ||
| 2013-05-07T11:33 | 1193 | 883 | 17.5 | 0.6 | ||
| 2013-05-07T11:34 | 1342 | 868 | 17.1 | 2.3 | ||
| 2013-05-07T11:34 | 1382 | 864 | 34 | 5 | ||
| 2013-05-07T11:34 | 1462 | 856 | 16.3 | 4.4 | ||
| 2013-05-07T11:35 | 1553 | 846 | 15.6 | 9.3 | ||
| 2013-05-07T11:35 | 1633 | 839 | 15.3 | 12.8 | ||
| 2013-05-07T11:35 | 1727 | 829 | 27 | 3 | ||
| 2013-05-07T11:35 | 1744 | 828 | 15.3 | 12.6 | ||
| 2013-05-07T11:36 | 1984 | 805 | 14.2 | 10.6 | ||
| 2013-05-07T11:36 | 2075 | 796 | 331 | 4 | ||
| 2013-05-07T11:36 | 2114 | 792 | 14.2 | 10.0 | ||
| 2013-05-07T11:37 | 2405 | 765 | 12.4 | 8.7 | ||
| 2013-05-07T11:37 | 2412 | 765 | 337 | 5 | ||
| 2013-05-07T11:38 | 2599 | 748 | 11.5 | 8.0 | ||
| 2013-05-07T11:38 | 2764 | 733 | 309 | 4 | ||
| 2013-05-07T11:38 | 2857 | 725 | 9.5 | 7.8 | ||
| 2013-05-07T11:39 | 3085 | 706 | 7.9 | 6.7 | ||
| 2013-05-07T11:39 | 3114 | 703 | 295 | 3 | ||
| 2013-05-07T11:39 | 3279 | 689 | 6.9 | 5.2 | ||
| 2013-05-07T11:40 | 3474 | 673 | 310 | 7 | ||
| 2013-05-07T11:40 | 3554 | 666 | 5.2 | 2.4 | ||
| 2013-05-07T11:41 | 3686 | 656 | 4.3 | 3.6 | ||
| 2013-05-07T11:41 | 3737 | 652 | 4.9 | 0.5 | ||
| 2013-05-07T11:41 | 3823 | 645 | 4.4 | 1.3 | 306 | 9 |
| 2013-05-07T11:41 | 3941 | 636 | 3.8 | 0.7 | ||
| 2013-05-07T11:42 | 4008 | 630 | 3.5 | 0.5 | ||
| 2013-05-07T11:42 | 4047 | 627 | 3.2 | 0.4 | ||
| 2013-05-07T11:42 | 4080 | 625 | 3.1 | -0.4 | ||
| 2013-05-07T11:42 | 4160 | 619 | 299 | 8 | ||
| 2013-05-07T11:42 | 4170 | 618 | 2.6 | -0.8 | ||
| 2013-05-07T11:43 | 4456 | 596 | 0.9 | -2.5 | ||
| 2013-05-07T11:43 | 4502 | 593 | 292 | 8 | ||
| 2013-05-07T11:43 | 4605 | 585 | -0.1 | -3.5 | ||
| 2013-05-07T11:43 | 4638 | 583 | -0.3 | -3.8 | ||
| 2013-05-07T11:44 | 4672 | 581 | -0.6 | -3.6 | ||
| 2013-05-07T11:44 | 4705 | 578 | -0.6 | -4.5 | ||
| 2013-05-07T11:44 | 4716 | 577 | -0.7 | -4.6 | ||
| 2013-05-07T11:44 | 4840 | 568 | 297 | 8 | ||
| 2013-05-07T11:44 | 4925 | 562 | -1.8 | -6.0 | ||
| 2013-05-07T11:45 | 5012 | 556 | -2.2 | -6.9 | ||
| 2013-05-07T11:45 | 5076 | 552 | -1.9 | -7.6 | ||
| 2013-05-07T11:45 | 5152 | 547 | -1.9 | -10.7 | ||
| 2013-05-07T11:45 | 5187 | 544 | 297 | 9 | ||
| 2013-05-07T11:46 | 5368 | 532 | -3.1 | -12.8 | ||
| 2013-05-07T11:46 | 5530 | 521 | -3.9 | -13.1 | ||
| 2013-05-07T11:46 | 5535 | 521 | 298 | 10 | ||
| 2013-05-07T11:46 | 5632 | 514 | -4.6 | -15.0 | ||
| 2013-05-07T11:47 | 5886 | 498 | 292 | 10 | ||
| 2013-05-07T11:47 | 6002 | 491 | -6.8 | -17.6 | ||
| 2013-05-07T11:48 | 6095 | 485 | -7.5 | -18.8 | ||
| 2013-05-07T11:48 | 6127 | 483 | -7.7 | -19.9 | ||
| 2013-05-07T11:48 | 6138 | 482 | -7.8 | -16.7 | ||
| 2013-05-07T11:48 | 6175 | 480 | -8.0 | -17.3 | ||
| 2013-05-07T11:48 | 6239 | 476 | -8.6 | -16.2 | ||
| 2013-05-07T11:48 | 6257 | 475 | 292 | 11 | ||
| 2013-05-07T11:48 | 6361 | 469 | -9.7 | -15.8 | ||
| 2013-05-07T11:48 | 6416 | 465 | -10.2 | -15.0 | ||
| 2013-05-07T11:49 | 6549 | 457 | -11.3 | -16.4 | ||
| 2013-05-07T11:49 | 6620 | 453 | 290 | 12 | ||
| 2013-05-07T11:49 | 6637 | 452 | -11.9 | -17.9 | ||
| 2013-05-07T11:49 | 6680 | 450 | -12.0 | -20.8 | ||
| 2013-05-07T11:49 | 6710 | 448 | -12.1 | -24.8 | ||
| 2013-05-07T11:49 | 6748 | 446 | -12.3 | -25.0 | ||
| 2013-05-07T11:49 | 6781 | 444 | -12.4 | -21.9 | ||
| 2013-05-07T11:50 | 6812 | 442 | -12.7 | -19.7 | ||
| 2013-05-07T11:50 | 6831 | 441 | -12.7 | -19.1 | ||
| 2013-05-07T11:50 | 6850 | 440 | -12.8 | -18.9 | ||
| 2013-05-07T11:50 | 6893 | 437 | -13.1 | -18.3 | ||
| 2013-05-07T11:50 | 6958 | 433 | -13.5 | -20.2 | ||
| 2013-05-07T11:50 | 6995 | 431 | 285 | 13 | ||
| 2013-05-07T11:50 | 7002 | 431 | -13.8 | -22.7 | ||
| 2013-05-07T11:50 | 7108 | 425 | -14.6 | -23.9 | ||
| 2013-05-07T11:50 | 7151 | 423 | -15.0 | -25.1 | ||
| 2013-05-07T11:51 | 7234 | 418 | -15.6 | -20.3 | ||
| 2013-05-07T11:51 | 7367 | 411 | -16.8 | -19.6 | ||
| 2013-05-07T11:51 | 7374 | 410 | 284 | 16 | ||
| 2013-05-07T11:51 | 7451 | 406 | -16.8 | -21.8 | ||
| 2013-05-07T11:51 | 7503 | 403 | -17.0 | -22.2 | ||
| 2013-05-07T11:52 | 7682 | 394 | -18.0 | -24.5 | ||
| 2013-05-07T11:52 | 7758 | 390 | 274 | 15 | ||
| 2013-05-07T11:52 | 7769 | 389 | -18.7 | -26.6 | ||
| 2013-05-07T11:52 | 7827 | 386 | -18.9 | -29.4 | ||
| 2013-05-07T11:52 | 7930 | 381 | -19.3 | -29.8 | ||
| 2013-05-07T11:53 | 7981 | 378 | -19.8 | -29.2 | ||
| 2013-05-07T11:53 | 8050 | 375 | -20.4 | -27.9 | ||
| 2013-05-07T11:53 | 8084 | 373 | -20.8 | -27.5 | ||
| 2013-05-07T11:53 | 8137 | 370 | -21.3 | -26.0 | 270 | 14 |
| 2013-05-07T11:53 | 8181 | 368 | -21.6 | -25.6 | ||
| 2013-05-07T11:53 | 8237 | 365 | -22.1 | -27.6 | ||
| 2013-05-07T11:53 | 8288 | 363 | -22.5 | -27.6 | ||
| 2013-05-07T11:54 | 8351 | 360 | -23.1 | -25.7 | ||
| 2013-05-07T11:54 | 8519 | 352 | -23.5 | -25.6 | 268 | 15 |
| 2013-05-07T11:55 | 8843 | 336 | -26.1 | -28.4 | ||
| 2013-05-07T11:55 | 8916 | 333 | 278 | 14 | ||
| 2013-05-07T11:56 | 9156 | 322 | -28.6 | -31.4 | ||
| 2013-05-07T11:56 | 9304 | 315 | 277 | 16 | ||
| 2013-05-07T11:57 | 9549 | 305 | -31.9 | -34.1 | ||
| 2013-05-07T11:57 | 9684 | 299 | 276 | 17 | ||
| 2013-05-07T11:58 | 9942 | 288 | -35.5 | -38.2 | ||
| 2013-05-07T11:58 | 10081 | 282 | 285 | 17 | ||
| 2013-05-07T11:59 | 10469 | 267 | 284 | 19 | ||
| 2013-05-07T11:59 | 10477 | 267 | -40.0 | -43.5 | ||
| 2013-05-07T12:00 | 10851 | 252 | 273 | 19 | ||
| 2013-05-07T12:01 | 11239 | 238 | 272 | 22 | ||
| 2013-05-07T12:02 | 11623 | 225 | 273 | 24 | ||
| 2013-05-07T12:03 | 11990 | 212 | 280 | 27 | ||
| 2013-05-07T12:04 | 12365 | 200 | -56.0 | 284 | 29 | |
| 2013-05-07T12:05 | 12767 | 188 | 291 | 29 | ||
| 2013-05-07T12:05 | 12866 | 185 | -57.6 | |||
| 2013-05-07T12:06 | 13169 | 176 | -58.0 | |||
| 2013-05-07T12:06 | 13183 | 176 | 270 | 26 | ||
| 2013-05-07T12:07 | 13660 | 163 | 273 | 27 | ||
| 2013-05-07T12:08 | 13965 | 155 | -62.1 | |||
| 2013-05-07T12:08 | 14171 | 150 | 282 | 23 | ||
| 2013-05-07T12:09 | 14588 | 140 | -65.5 | |||
| 2013-05-07T12:09 | 14658 | 139 | 289 | 19 | ||
| 2013-05-07T12:10 | 15070 | 129 | -66.5 | |||
| 2013-05-07T12:10 | 15117 | 128 | 287 | 18 | ||
| 2013-05-07T12:11 | 15259 | 125 | -68.0 | |||
| 2013-05-07T23:30 | 8 | 1015 | 24.7 | 19.1 | 90 | 6 |
| 2013-05-07T23:30 | 14 | 1014 | 23.2 | 19.8 | ||
| 2013-05-07T23:31 | 202 | 992 | 21.4 | 17.2 | ||
| 2013-05-07T23:31 | 216 | 991 | 21.3 | 17.1 | ||
| 2013-05-07T23:31 | 287 | 983 | 20.7 | 17.1 | ||
| 2013-05-07T23:31 | 344 | 976 | 88 | 10 | ||
| 2013-05-07T23:32 | 714 | 935 | 99 | 9 | ||
| 2013-05-07T23:32 | 802 | 925 | 16.6 | 16.3 | ||
| 2013-05-07T23:32 | 860 | 919 | 16.1 | 14.5 | ||
| 2013-05-07T23:33 | 935 | 911 | 15.5 | 14.0 | ||
| 2013-05-07T23:33 | 1025 | 902 | 14.8 | 12.5 | ||
| 2013-05-07T23:33 | 1038 | 900 | 15.9 | 5.5 | ||
| 2013-05-07T23:33 | 1051 | 899 | 114 | 8 | ||
| 2013-05-07T23:33 | 1057 | 898 | 16.9 | 3.9 | ||
| 2013-05-07T23:33 | 1078 | 896 | 17.5 | -1.7 | ||
| 2013-05-07T23:33 | 1194 | 884 | 17.5 | -1.2 | ||
| 2013-05-07T23:34 | 1338 | 869 | 17.0 | -1.2 | ||
| 2013-05-07T23:34 | 1371 | 866 | 119 | 7 | ||
| 2013-05-07T23:34 | 1425 | 860 | 16.5 | -3.6 | ||
| 2013-05-07T23:35 | 1545 | 848 | 15.9 | -4.6 | ||
| 2013-05-07T23:35 | 1583 | 844 | 15.6 | 3.1 | ||
| 2013-05-07T23:35 | 1695 | 833 | 130 | 2 | ||
| 2013-05-07T23:35 | 1794 | 824 | 13.9 | 10.7 | ||
| 2013-05-07T23:35 | 1824 | 821 | 14.3 | 11.3 | ||
| 2013-05-07T23:36 | 1935 | 810 | 15.0 | 9.6 | ||
| 2013-05-07T23:36 | 2011 | 803 | 13 | 2 | ||
| 2013-05-07T23:37 | 2179 | 787 | 13.1 | 9.9 | ||
| 2013-05-07T23:37 | 2346 | 771 | 330 | 1 | ||
| 2013-05-07T23:37 | 2439 | 763 | 11.5 | 9.1 | ||
| 2013-05-07T23:38 | 2672 | 742 | 291 | 2 | ||
| 2013-05-07T23:38 | 2784 | 732 | 10.1 | 6.6 | ||
| 2013-05-07T23:39 | 2854 | 726 | 9.8 | 6.1 | ||
| 2013-05-07T23:39 | 2990 | 714 | 318 | 4 | ||
| 2013-05-07T23:39 | 2995 | 714 | 8.9 | 6.2 | ||
| 2013-05-07T23:40 | 3265 | 691 | 7.5 | 5.1 | ||
| 2013-05-07T23:40 | 3317 | 687 | 300 | 2 | ||
| 2013-05-07T23:40 | 3398 | 680 | 6.9 | 4.0 | ||
| 2013-05-07T23:40 | 3476 | 673 | 6.8 | 3.8 | ||
| 2013-05-07T23:41 | 3649 | 659 | 284 | 4 | ||
| 2013-05-07T23:41 | 3702 | 655 | 5.4 | 2.7 | ||
| 2013-05-07T23:42 | 3862 | 642 | 4.5 | 0.6 | ||
| 2013-05-07T23:42 | 3972 | 634 | 300 | 4 | ||
| 2013-05-07T23:42 | 4069 | 626 | 3.4 | -3.2 | ||
| 2013-05-07T23:43 | 4214 | 615 | 2.5 | -6.1 | ||
| 2013-05-07T23:43 | 4236 | 613 | 2.4 | -5.3 | ||
| 2013-05-07T23:43 | 4252 | 612 | 2.3 | -6.8 | ||
| 2013-05-07T23:43 | 4296 | 609 | 283 | 6 | ||
| 2013-05-07T23:43 | 4306 | 608 | 2.0 | -4.3 | ||
| 2013-05-07T23:43 | 4362 | 604 | 1.7 | -11.4 | ||
| 2013-05-07T23:43 | 4420 | 600 | 2.1 | -11.8 | ||
| 2013-05-07T23:43 | 4453 | 597 | 1.9 | -10.9 | ||
| 2013-05-07T23:44 | 4464 | 596 | 1.8 | -10.4 | ||
| 2013-05-07T23:44 | 4553 | 590 | 1.2 | -9.7 | ||
| 2013-05-07T23:44 | 4631 | 584 | 293 | 8 | ||
| 2013-05-07T23:44 | 4687 | 580 | 0.8 | -10.1 | ||
| 2013-05-07T23:44 | 4793 | 572 | -0.1 | -8.3 | ||
| 2013-05-07T23:45 | 4967 | 560 | 282 | 8 | ||
| 2013-05-07T23:45 | 5042 | 555 | -1.9 | -8.9 | ||
| 2013-05-07T23:46 | 5226 | 542 | -3.1 | -10.4 | ||
| 2013-05-07T23:46 | 5285 | 538 | 288 | 6 | ||
| 2013-05-07T23:47 | 5484 | 525 | -5.2 | -10.9 | ||
| 2013-05-07T23:47 | 5614 | 516 | 292 | 9 | ||
| 2013-05-07T23:47 | 5734 | 508 | -7.1 | -12.4 | ||
| 2013-05-07T23:48 | 5792 | 504 | -7.6 | -10.1 | ||
| 2013-05-07T23:48 | 5941 | 495 | 297 | 10 | ||
| 2013-05-07T23:49 | 6181 | 480 | -10.8 | -12.0 | ||
| 2013-05-07T23:49 | 6276 | 474 | 289 | 11 | ||
| 2013-05-07T23:49 | 6359 | 469 | -11.6 | -12.2 | ||
| 2013-05-07T23:50 | 6460 | 463 | -11.6 | -15.3 | ||
| 2013-05-07T23:50 | 6626 | 453 | 291 | 12 | ||
| 2013-05-07T23:50 | 6720 | 447 | -12.8 | -18.4 | ||
| 2013-05-07T23:50 | 6787 | 443 | -13.1 | -17.6 | ||
| 2013-05-07T23:51 | 6957 | 433 | -14.3 | -17.0 | 287 | 14 |
| 2013-05-07T23:51 | 7088 | 426 | -15.0 | -17.8 | ||
| 2013-05-07T23:52 | 7159 | 422 | -15.2 | -18.5 | ||
| 2013-05-07T23:52 | 7195 | 420 | -15.1 | -20.8 | ||
| 2013-05-07T23:52 | 7309 | 414 | 276 | 16 | ||
| 2013-05-07T23:53 | 7659 | 395 | 273 | 16 | ||
| 2013-05-07T23:53 | 7822 | 386 | -20.7 | -23.7 | ||
| 2013-05-07T23:54 | 7998 | 377 | 281 | 15 |
Only the first 2000 rows were shown. To view the complete dataset, download it as tab-delimited text. You can still view the full matrix in your browser, but be aware that this may crash the browser due to the huge size.
